<?xml version="1.0" encoding="UTF-8" standalone="no" ?>
<gpx xmlns="http://www.topografix.com/GPX/1/1" xmlns:xsi="http://www.w3.org/2001/XMLSchema-instance" xsi:schemaLocation="http://www.topografix.com/GPX/1/1 http://www.topografix.com/GPX/1/1/gpx.xsd" version="1.1" creator="VisuGPX - https://www.visugpx.com">
  <metadata>
    <name>Davrinche20104</name>
    <desc><![CDATA[la partie 4 des itinéraires de repérage]]></desc>
  </metadata>
  <trk>
    <name><![CDATA[--Manzat-- OR-5377765:ser-jb07-vtt-l]]></name>
    <trkseg>
      <trkpt lat="45.96117" lon="2.9417">
        <ele>630</ele>
        <time>2015-10-18T23:11:26Z</time>
      </trkpt>
      <trkpt lat="45.96109" lon="2.94175">
        <ele>630</ele>
        <time>2015-10-18T23:13:26Z</time>
      </trkpt>
      <trkpt lat="45.96091" lon="2.94214">
        <ele>632</ele>
        <time>2015-10-18T23:15:26Z</time>
      </trkpt>
      <trkpt lat="45.9608" lon="2.94231">
        <ele>633</ele>
        <time>2015-10-18T23:17:26Z</time>
      </trkpt>
      <trkpt lat="45.96067" lon="2.94247">
        <ele>635</ele>
        <time>2015-10-18T23:19:26Z</time>
      </trkpt>
      <trkpt lat="45.96055" lon="2.9427">
        <ele>638</ele>
        <time>2015-10-18T23:21:26Z</time>
      </trkpt>
      <trkpt lat="45.96046" lon="2.94308">
        <ele>642</ele>
        <time>2015-10-18T23:23:26Z</time>
      </trkpt>
      <trkpt lat="45.9604" lon="2.94321">
        <ele>643</ele>
        <time>2015-10-18T23:25:26Z</time>
      </trkpt>
      <trkpt lat="45.96002" lon="2.94353">
        <ele>650</ele>
        <time>2015-10-18T23:27:26Z</time>
      </trkpt>
      <trkpt lat="45.95987" lon="2.94364">
        <ele>652</ele>
        <time>2015-10-18T23:29:26Z</time>
      </trkpt>
      <trkpt lat="45.95966" lon="2.94382">
        <ele>656</ele>
        <time>2015-10-18T23:31:26Z</time>
      </trkpt>
      <trkpt lat="45.95897" lon="2.94431">
        <ele>671</ele>
        <time>2015-10-18T23:33:26Z</time>
      </trkpt>
      <trkpt lat="45.95882" lon="2.9442">
        <ele>672</ele>
        <time>2015-10-18T23:35:26Z</time>
      </trkpt>
      <trkpt lat="45.95858" lon="2.9439">
        <ele>673</ele>
        <time>2015-10-18T23:37:26Z</time>
      </trkpt>
      <trkpt lat="45.95835" lon="2.94368">
        <ele>675</ele>
        <time>2015-10-18T23:39:26Z</time>
      </trkpt>
      <trkpt lat="45.95805" lon="2.94354">
        <ele>678</ele>
        <time>2015-10-18T23:41:26Z</time>
      </trkpt>
      <trkpt lat="45.9572" lon="2.94574">
        <ele>718</ele>
        <time>2015-10-18T23:43:26Z</time>
      </trkpt>
      <trkpt lat="45.95725" lon="2.94601">
        <ele>722</ele>
        <time>2015-10-18T23:45:26Z</time>
      </trkpt>
      <trkpt lat="45.95738" lon="2.94631">
        <ele>725</ele>
        <time>2015-10-18T23:47:26Z</time>
      </trkpt>
      <trkpt lat="45.95738" lon="2.94657">
        <ele>729</ele>
        <time>2015-10-18T23:49:26Z</time>
      </trkpt>
      <trkpt lat="45.95735" lon="2.94691">
        <ele>734</ele>
        <time>2015-10-18T23:51:26Z</time>
      </trkpt>
      <trkpt lat="45.95741" lon="2.94741">
        <ele>739</ele>
        <time>2015-10-18T23:53:26Z</time>
      </trkpt>
      <trkpt lat="45.95739" lon="2.94771">
        <ele>742</ele>
        <time>2015-10-18T23:55:26Z</time>
      </trkpt>
      <trkpt lat="45.95721" lon="2.94796">
        <ele>746</ele>
        <time>2015-10-18T23:57:26Z</time>
      </trkpt>
      <trkpt lat="45.95706" lon="2.94822">
        <ele>749</ele>
        <time>2015-10-18T23:59:26Z</time>
      </trkpt>
      <trkpt lat="45.9564" lon="2.94842">
        <ele>757</ele>
        <time>2015-10-19T00:01:26Z</time>
      </trkpt>
      <trkpt lat="45.95587" lon="2.94826">
        <ele>766</ele>
        <time>2015-10-19T00:03:26Z</time>
      </trkpt>
      <trkpt lat="45.95578" lon="2.94814">
        <ele>766</ele>
        <time>2015-10-19T00:05:26Z</time>
      </trkpt>
      <trkpt lat="45.95532" lon="2.94792">
        <ele>767</ele>
        <time>2015-10-19T00:07:26Z</time>
      </trkpt>
      <trkpt lat="45.95437" lon="2.94742">
        <ele>774</ele>
        <time>2015-10-19T00:09:26Z</time>
      </trkpt>
      <trkpt lat="45.95411" lon="2.94714">
        <ele>776</ele>
        <time>2015-10-19T00:11:26Z</time>
      </trkpt>
      <trkpt lat="45.95331" lon="2.94607">
        <ele>778</ele>
        <time>2015-10-19T00:13:26Z</time>
      </trkpt>
      <trkpt lat="45.95301" lon="2.94558">
        <ele>774</ele>
        <time>2015-10-19T00:15:26Z</time>
      </trkpt>
      <trkpt lat="45.9523" lon="2.94518">
        <ele>770</ele>
        <time>2015-10-19T00:17:26Z</time>
      </trkpt>
      <trkpt lat="45.95204" lon="2.94493">
        <ele>768</ele>
        <time>2015-10-19T00:19:26Z</time>
      </trkpt>
      <trkpt lat="45.95174" lon="2.94448">
        <ele>766</ele>
        <time>2015-10-19T00:21:26Z</time>
      </trkpt>
      <trkpt lat="45.95125" lon="2.94385">
        <ele>762</ele>
        <time>2015-10-19T00:23:26Z</time>
      </trkpt>
      <trkpt lat="45.95111" lon="2.9439">
        <ele>763</ele>
        <time>2015-10-19T00:25:26Z</time>
      </trkpt>
      <trkpt lat="45.951" lon="2.94424">
        <ele>767</ele>
        <time>2015-10-19T00:27:26Z</time>
      </trkpt>
      <trkpt lat="45.95077" lon="2.94413">
        <ele>767</ele>
        <time>2015-10-19T00:29:26Z</time>
      </trkpt>
      <trkpt lat="45.95041" lon="2.94389">
        <ele>764</ele>
        <time>2015-10-19T00:31:26Z</time>
      </trkpt>
      <trkpt lat="45.94991" lon="2.94361">
        <ele>761</ele>
        <time>2015-10-19T00:33:26Z</time>
      </trkpt>
      <trkpt lat="45.94963" lon="2.94346">
        <ele>761</ele>
        <time>2015-10-19T00:35:26Z</time>
      </trkpt>
      <trkpt lat="45.94957" lon="2.94402">
        <ele>770</ele>
        <time>2015-10-19T00:37:26Z</time>
      </trkpt>
      <trkpt lat="45.94863" lon="2.94346">
        <ele>771</ele>
        <time>2015-10-19T00:39:26Z</time>
      </trkpt>
      <trkpt lat="45.94768" lon="2.94286">
        <ele>770</ele>
        <time>2015-10-19T00:41:26Z</time>
      </trkpt>
      <trkpt lat="45.94716" lon="2.94238">
        <ele>766</ele>
        <time>2015-10-19T00:43:26Z</time>
      </trkpt>
      <trkpt lat="45.94667" lon="2.94194">
        <ele>760</ele>
        <time>2015-10-19T00:45:26Z</time>
      </trkpt>
      <trkpt lat="45.94642" lon="2.9418">
        <ele>757</ele>
        <time>2015-10-19T00:47:26Z</time>
      </trkpt>
      <trkpt lat="45.94617" lon="2.94165">
        <ele>754</ele>
        <time>2015-10-19T00:49:26Z</time>
      </trkpt>
      <trkpt lat="45.9458" lon="2.94129">
        <ele>748</ele>
        <time>2015-10-19T00:51:26Z</time>
      </trkpt>
      <trkpt lat="45.94562" lon="2.94129">
        <ele>747</ele>
        <time>2015-10-19T00:53:26Z</time>
      </trkpt>
      <trkpt lat="45.94541" lon="2.9414">
        <ele>748</ele>
        <time>2015-10-19T00:55:26Z</time>
      </trkpt>
      <trkpt lat="45.94512" lon="2.94164">
        <ele>748</ele>
        <time>2015-10-19T00:57:26Z</time>
      </trkpt>
      <trkpt lat="45.94487" lon="2.9419">
        <ele>754</ele>
        <time>2015-10-19T00:59:26Z</time>
      </trkpt>
      <trkpt lat="45.94461" lon="2.94213">
        <ele>760</ele>
        <time>2015-10-19T01:01:26Z</time>
      </trkpt>
      <trkpt lat="45.94451" lon="2.94214">
        <ele>761</ele>
        <time>2015-10-19T01:03:26Z</time>
      </trkpt>
      <trkpt lat="45.94439" lon="2.94203">
        <ele>760</ele>
        <time>2015-10-19T01:05:26Z</time>
      </trkpt>
      <trkpt lat="45.94431" lon="2.94174">
        <ele>759</ele>
        <time>2015-10-19T01:07:26Z</time>
      </trkpt>
      <trkpt lat="45.94431" lon="2.94151">
        <ele>759</ele>
        <time>2015-10-19T01:09:26Z</time>
      </trkpt>
      <trkpt lat="45.94443" lon="2.94118">
        <ele>756</ele>
        <time>2015-10-19T01:11:26Z</time>
      </trkpt>
      <trkpt lat="45.94453" lon="2.94099">
        <ele>753</ele>
        <time>2015-10-19T01:13:26Z</time>
      </trkpt>
      <trkpt lat="45.94469" lon="2.94068">
        <ele>748</ele>
        <time>2015-10-19T01:15:26Z</time>
      </trkpt>
      <trkpt lat="45.94466" lon="2.94041">
        <ele>746</ele>
        <time>2015-10-19T01:17:26Z</time>
      </trkpt>
      <trkpt lat="45.94455" lon="2.94025">
        <ele>747</ele>
        <time>2015-10-19T01:19:26Z</time>
      </trkpt>
      <trkpt lat="45.94437" lon="2.93995">
        <ele>747</ele>
        <time>2015-10-19T01:21:26Z</time>
      </trkpt>
      <trkpt lat="45.9442" lon="2.93968">
        <ele>745</ele>
        <time>2015-10-19T01:23:26Z</time>
      </trkpt>
      <trkpt lat="45.94401" lon="2.93952">
        <ele>744</ele>
        <time>2015-10-19T01:25:26Z</time>
      </trkpt>
      <trkpt lat="45.9439" lon="2.93956">
        <ele>746</ele>
        <time>2015-10-19T01:27:26Z</time>
      </trkpt>
      <trkpt lat="45.94374" lon="2.93958">
        <ele>748</ele>
        <time>2015-10-19T01:29:26Z</time>
      </trkpt>
      <trkpt lat="45.94361" lon="2.93965">
        <ele>750</ele>
        <time>2015-10-19T01:31:26Z</time>
      </trkpt>
      <trkpt lat="45.94346" lon="2.93976">
        <ele>752</ele>
        <time>2015-10-19T01:33:26Z</time>
      </trkpt>
      <trkpt lat="45.94316" lon="2.9402">
        <ele>759</ele>
        <time>2015-10-19T01:35:26Z</time>
      </trkpt>
      <trkpt lat="45.94278" lon="2.94066">
        <ele>763</ele>
        <time>2015-10-19T01:37:26Z</time>
      </trkpt>
      <trkpt lat="45.9424" lon="2.94105">
        <ele>767</ele>
        <time>2015-10-19T01:39:26Z</time>
      </trkpt>
      <trkpt lat="45.94205" lon="2.94132">
        <ele>770</ele>
        <time>2015-10-19T01:41:26Z</time>
      </trkpt>
      <trkpt lat="45.94185" lon="2.94146">
        <ele>772</ele>
        <time>2015-10-19T01:43:26Z</time>
      </trkpt>
      <trkpt lat="45.94128" lon="2.94166">
        <ele>776</ele>
        <time>2015-10-19T01:45:26Z</time>
      </trkpt>
      <trkpt lat="45.94075" lon="2.94171">
        <ele>780</ele>
        <time>2015-10-19T01:47:26Z</time>
      </trkpt>
      <trkpt lat="45.94049" lon="2.94178">
        <ele>784</ele>
        <time>2015-10-19T01:49:26Z</time>
      </trkpt>
      <trkpt lat="45.93979" lon="2.94193">
        <ele>792</ele>
        <time>2015-10-19T01:51:26Z</time>
      </trkpt>
      <trkpt lat="45.93955" lon="2.94183">
        <ele>793</ele>
        <time>2015-10-19T01:53:26Z</time>
      </trkpt>
      <trkpt lat="45.9393" lon="2.94187">
        <ele>796</ele>
        <time>2015-10-19T01:55:26Z</time>
      </trkpt>
      <trkpt lat="45.93909" lon="2.94192">
        <ele>798</ele>
        <time>2015-10-19T01:57:26Z</time>
      </trkpt>
      <trkpt lat="45.93891" lon="2.94203">
        <ele>801</ele>
        <time>2015-10-19T01:59:26Z</time>
      </trkpt>
      <trkpt lat="45.93858" lon="2.94228">
        <ele>804</ele>
        <time>2015-10-19T02:01:26Z</time>
      </trkpt>
      <trkpt lat="45.93845" lon="2.94242">
        <ele>805</ele>
        <time>2015-10-19T02:03:26Z</time>
      </trkpt>
      <trkpt lat="45.93823" lon="2.94252">
        <ele>807</ele>
        <time>2015-10-19T02:05:26Z</time>
      </trkpt>
      <trkpt lat="45.93789" lon="2.94268">
        <ele>812</ele>
        <time>2015-10-19T02:07:26Z</time>
      </trkpt>
      <trkpt lat="45.93738" lon="2.9429">
        <ele>818</ele>
        <time>2015-10-19T02:09:26Z</time>
      </trkpt>
      <trkpt lat="45.93688" lon="2.94298">
        <ele>822</ele>
        <time>2015-10-19T02:11:26Z</time>
      </trkpt>
      <trkpt lat="45.9367" lon="2.94304">
        <ele>823</ele>
        <time>2015-10-19T02:13:26Z</time>
      </trkpt>
      <trkpt lat="45.93626" lon="2.94285">
        <ele>827</ele>
        <time>2015-10-19T02:15:26Z</time>
      </trkpt>
      <trkpt lat="45.93585" lon="2.94276">
        <ele>831</ele>
        <time>2015-10-19T02:17:26Z</time>
      </trkpt>
      <trkpt lat="45.93521" lon="2.9427">
        <ele>832</ele>
        <time>2015-10-19T02:19:26Z</time>
      </trkpt>
      <trkpt lat="45.93499" lon="2.94229">
        <ele>833</ele>
        <time>2015-10-19T02:21:26Z</time>
      </trkpt>
      <trkpt lat="45.93473" lon="2.94171">
        <ele>836</ele>
        <time>2015-10-19T02:23:26Z</time>
      </trkpt>
      <trkpt lat="45.93447" lon="2.94139">
        <ele>834</ele>
        <time>2015-10-19T02:25:26Z</time>
      </trkpt>
      <trkpt lat="45.93433" lon="2.9411">
        <ele>832</ele>
        <time>2015-10-19T02:27:26Z</time>
      </trkpt>
      <trkpt lat="45.9343" lon="2.94051">
        <ele>829</ele>
        <time>2015-10-19T02:29:26Z</time>
      </trkpt>
      <trkpt lat="45.9344" lon="2.93981">
        <ele>827</ele>
        <time>2015-10-19T02:31:26Z</time>
      </trkpt>
      <trkpt lat="45.9345" lon="2.93943">
        <ele>826</ele>
        <time>2015-10-19T02:33:26Z</time>
      </trkpt>
      <trkpt lat="45.93469" lon="2.93879">
        <ele>825</ele>
        <time>2015-10-19T02:35:26Z</time>
      </trkpt>
      <trkpt lat="45.9347" lon="2.93849">
        <ele>824</ele>
        <time>2015-10-19T02:37:26Z</time>
      </trkpt>
      <trkpt lat="45.93476" lon="2.93785">
        <ele>820</ele>
        <time>2015-10-19T02:39:26Z</time>
      </trkpt>
      <trkpt lat="45.93484" lon="2.93734">
        <ele>817</ele>
        <time>2015-10-19T02:41:26Z</time>
      </trkpt>
      <trkpt lat="45.93485" lon="2.93673">
        <ele>813</ele>
        <time>2015-10-19T02:43:26Z</time>
      </trkpt>
      <trkpt lat="45.93476" lon="2.93616">
        <ele>814</ele>
        <time>2015-10-19T02:45:26Z</time>
      </trkpt>
      <trkpt lat="45.93461" lon="2.93573">
        <ele>812</ele>
        <time>2015-10-19T02:47:26Z</time>
      </trkpt>
      <trkpt lat="45.93429" lon="2.93482">
        <ele>809</ele>
        <time>2015-10-19T02:49:26Z</time>
      </trkpt>
      <trkpt lat="45.93422" lon="2.93415">
        <ele>810</ele>
        <time>2015-10-19T02:51:26Z</time>
      </trkpt>
      <trkpt lat="45.93412" lon="2.9338">
        <ele>810</ele>
        <time>2015-10-19T02:53:26Z</time>
      </trkpt>
      <trkpt lat="45.93395" lon="2.9333">
        <ele>810</ele>
        <time>2015-10-19T02:55:26Z</time>
      </trkpt>
      <trkpt lat="45.93376" lon="2.9328">
        <ele>810</ele>
        <time>2015-10-19T02:57:26Z</time>
      </trkpt>
      <trkpt lat="45.93364" lon="2.93247">
        <ele>809</ele>
        <time>2015-10-19T02:59:26Z</time>
      </trkpt>
      <trkpt lat="45.93353" lon="2.93186">
        <ele>809</ele>
        <time>2015-10-19T03:01:26Z</time>
      </trkpt>
      <trkpt lat="45.93351" lon="2.93148">
        <ele>808</ele>
        <time>2015-10-19T03:03:26Z</time>
      </trkpt>
      <trkpt lat="45.93363" lon="2.93105">
        <ele>808</ele>
        <time>2015-10-19T03:05:26Z</time>
      </trkpt>
      <trkpt lat="45.93379" lon="2.93071">
        <ele>809</ele>
        <time>2015-10-19T03:07:26Z</time>
      </trkpt>
      <trkpt lat="45.93405" lon="2.93043">
        <ele>811</ele>
        <time>2015-10-19T03:09:26Z</time>
      </trkpt>
      <trkpt lat="45.93421" lon="2.9302">
        <ele>812</ele>
        <time>2015-10-19T03:11:26Z</time>
      </trkpt>
      <trkpt lat="45.93383" lon="2.93009">
        <ele>806</ele>
        <time>2015-10-19T03:13:26Z</time>
      </trkpt>
      <trkpt lat="45.9335" lon="2.93004">
        <ele>801</ele>
        <time>2015-10-19T03:15:26Z</time>
      </trkpt>
      <trkpt lat="45.93336" lon="2.93004">
        <ele>799</ele>
        <time>2015-10-19T03:17:26Z</time>
      </trkpt>
      <trkpt lat="45.93311" lon="2.93026">
        <ele>796</ele>
        <time>2015-10-19T03:19:26Z</time>
      </trkpt>
      <trkpt lat="45.93294" lon="2.93041">
        <ele>794</ele>
        <time>2015-10-19T03:21:26Z</time>
      </trkpt>
      <trkpt lat="45.93277" lon="2.93072">
        <ele>792</ele>
        <time>2015-10-19T03:23:26Z</time>
      </trkpt>
      <trkpt lat="45.93262" lon="2.93095">
        <ele>790</ele>
        <time>2015-10-19T03:25:26Z</time>
      </trkpt>
      <trkpt lat="45.9325" lon="2.93105">
        <ele>789</ele>
        <time>2015-10-19T03:27:26Z</time>
      </trkpt>
      <trkpt lat="45.93229" lon="2.93119">
        <ele>792</ele>
        <time>2015-10-19T03:29:26Z</time>
      </trkpt>
      <trkpt lat="45.9321" lon="2.93121">
        <ele>794</ele>
        <time>2015-10-19T03:31:26Z</time>
      </trkpt>
      <trkpt lat="45.93187" lon="2.93095">
        <ele>796</ele>
        <time>2015-10-19T03:33:26Z</time>
      </trkpt>
      <trkpt lat="45.93156" lon="2.93073">
        <ele>797</ele>
        <time>2015-10-19T03:35:26Z</time>
      </trkpt>
      <trkpt lat="45.93125" lon="2.93057">
        <ele>799</ele>
        <time>2015-10-19T03:37:26Z</time>
      </trkpt>
      <trkpt lat="45.93106" lon="2.93049">
        <ele>800</ele>
        <time>2015-10-19T03:39:26Z</time>
      </trkpt>
      <trkpt lat="45.93079" lon="2.9305">
        <ele>801</ele>
        <time>2015-10-19T03:41:26Z</time>
      </trkpt>
      <trkpt lat="45.93053" lon="2.93057">
        <ele>804</ele>
        <time>2015-10-19T03:43:26Z</time>
      </trkpt>
      <trkpt lat="45.93016" lon="2.93122">
        <ele>811</ele>
        <time>2015-10-19T03:45:26Z</time>
      </trkpt>
      <trkpt lat="45.93012" lon="2.93157">
        <ele>813</ele>
        <time>2015-10-19T03:47:26Z</time>
      </trkpt>
      <trkpt lat="45.93" lon="2.93196">
        <ele>818</ele>
        <time>2015-10-19T03:49:26Z</time>
      </trkpt>
      <trkpt lat="45.92973" lon="2.93262">
        <ele>823</ele>
        <time>2015-10-19T03:51:26Z</time>
      </trkpt>
      <trkpt lat="45.92959" lon="2.93293">
        <ele>824</ele>
        <time>2015-10-19T03:53:26Z</time>
      </trkpt>
      <trkpt lat="45.9293" lon="2.93397">
        <ele>825</ele>
        <time>2015-10-19T03:55:26Z</time>
      </trkpt>
      <trkpt lat="45.92905" lon="2.93457">
        <ele>828</ele>
        <time>2015-10-19T03:57:26Z</time>
      </trkpt>
      <trkpt lat="45.92886" lon="2.93462">
        <ele>829</ele>
        <time>2015-10-19T03:59:26Z</time>
      </trkpt>
      <trkpt lat="45.92859" lon="2.9347">
        <ele>831</ele>
        <time>2015-10-19T04:01:26Z</time>
      </trkpt>
      <trkpt lat="45.92833" lon="2.93473">
        <ele>832</ele>
        <time>2015-10-19T04:03:26Z</time>
      </trkpt>
      <trkpt lat="45.92791" lon="2.93495">
        <ele>838</ele>
        <time>2015-10-19T04:05:26Z</time>
      </trkpt>
      <trkpt lat="45.92744" lon="2.93533">
        <ele>846</ele>
        <time>2015-10-19T04:07:26Z</time>
      </trkpt>
      <trkpt lat="45.92721" lon="2.93542">
        <ele>848</ele>
        <time>2015-10-19T04:09:26Z</time>
      </trkpt>
      <trkpt lat="45.9265" lon="2.9358">
        <ele>852</ele>
        <time>2015-10-19T04:11:26Z</time>
      </trkpt>
      <trkpt lat="45.92612" lon="2.9356">
        <ele>854</ele>
        <time>2015-10-19T04:13:26Z</time>
      </trkpt>
      <trkpt lat="45.92609" lon="2.93524">
        <ele>856</ele>
        <time>2015-10-19T04:15:26Z</time>
      </trkpt>
      <trkpt lat="45.92615" lon="2.93489">
        <ele>857</ele>
        <time>2015-10-19T04:17:26Z</time>
      </trkpt>
      <trkpt lat="45.92629" lon="2.93467">
        <ele>857</ele>
        <time>2015-10-19T04:19:26Z</time>
      </trkpt>
      <trkpt lat="45.92656" lon="2.93436">
        <ele>857</ele>
        <time>2015-10-19T04:21:26Z</time>
      </trkpt>
      <trkpt lat="45.92675" lon="2.93396">
        <ele>858</ele>
        <time>2015-10-19T04:23:26Z</time>
      </trkpt>
      <trkpt lat="45.92682" lon="2.93351">
        <ele>859</ele>
        <time>2015-10-19T04:25:26Z</time>
      </trkpt>
      <trkpt lat="45.92703" lon="2.93286">
        <ele>857</ele>
        <time>2015-10-19T04:27:26Z</time>
      </trkpt>
      <trkpt lat="45.92708" lon="2.93245">
        <ele>856</ele>
        <time>2015-10-19T04:29:26Z</time>
      </trkpt>
      <trkpt lat="45.92703" lon="2.93219">
        <ele>857</ele>
        <time>2015-10-19T04:31:26Z</time>
      </trkpt>
      <trkpt lat="45.92706" lon="2.93187">
        <ele>856</ele>
        <time>2015-10-19T04:33:26Z</time>
      </trkpt>
      <trkpt lat="45.92706" lon="2.93072">
        <ele>848</ele>
        <time>2015-10-19T04:35:26Z</time>
      </trkpt>
      <trkpt lat="45.92697" lon="2.93053">
        <ele>845</ele>
        <time>2015-10-19T04:37:26Z</time>
      </trkpt>
      <trkpt lat="45.92675" lon="2.93043">
        <ele>845</ele>
        <time>2015-10-19T04:39:26Z</time>
      </trkpt>
      <trkpt lat="45.92709" lon="2.92969">
        <ele>837</ele>
        <time>2015-10-19T04:41:26Z</time>
      </trkpt>
      <trkpt lat="45.92698" lon="2.92925">
        <ele>837</ele>
        <time>2015-10-19T04:43:26Z</time>
      </trkpt>
      <trkpt lat="45.92687" lon="2.92892">
        <ele>840</ele>
        <time>2015-10-19T04:45:26Z</time>
      </trkpt>
      <trkpt lat="45.92688" lon="2.92847">
        <ele>843</ele>
        <time>2015-10-19T04:47:26Z</time>
      </trkpt>
      <trkpt lat="45.92706" lon="2.92829">
        <ele>846</ele>
        <time>2015-10-19T04:49:26Z</time>
      </trkpt>
      <trkpt lat="45.92744" lon="2.92822">
        <ele>849</ele>
        <time>2015-10-19T04:51:26Z</time>
      </trkpt>
      <trkpt lat="45.92779" lon="2.92814">
        <ele>852</ele>
        <time>2015-10-19T04:53:26Z</time>
      </trkpt>
      <trkpt lat="45.92807" lon="2.92797">
        <ele>855</ele>
        <time>2015-10-19T04:55:26Z</time>
      </trkpt>
      <trkpt lat="45.92793" lon="2.9276">
        <ele>858</ele>
        <time>2015-10-19T04:57:26Z</time>
      </trkpt>
      <trkpt lat="45.9277" lon="2.92711">
        <ele>863</ele>
        <time>2015-10-19T04:59:26Z</time>
      </trkpt>
      <trkpt lat="45.92757" lon="2.92697">
        <ele>865</ele>
        <time>2015-10-19T05:01:26Z</time>
      </trkpt>
      <trkpt lat="45.9272" lon="2.92671">
        <ele>867</ele>
        <time>2015-10-19T05:03:26Z</time>
      </trkpt>
      <trkpt lat="45.92668" lon="2.92628">
        <ele>869</ele>
        <time>2015-10-19T05:05:26Z</time>
      </trkpt>
      <trkpt lat="45.9265" lon="2.9259">
        <ele>873</ele>
        <time>2015-10-19T05:07:26Z</time>
      </trkpt>
      <trkpt lat="45.92633" lon="2.92498">
        <ele>878</ele>
        <time>2015-10-19T05:09:26Z</time>
      </trkpt>
      <trkpt lat="45.92643" lon="2.92464">
        <ele>878</ele>
        <time>2015-10-19T05:11:26Z</time>
      </trkpt>
      <trkpt lat="45.92647" lon="2.92417">
        <ele>878</ele>
        <time>2015-10-19T05:13:26Z</time>
      </trkpt>
      <trkpt lat="45.92639" lon="2.92395">
        <ele>878</ele>
        <time>2015-10-19T05:15:26Z</time>
      </trkpt>
      <trkpt lat="45.92629" lon="2.92328">
        <ele>879</ele>
        <time>2015-10-19T05:17:26Z</time>
      </trkpt>
      <trkpt lat="45.92625" lon="2.92272">
        <ele>880</ele>
        <time>2015-10-19T05:19:26Z</time>
      </trkpt>
      <trkpt lat="45.92625" lon="2.92237">
        <ele>882</ele>
        <time>2015-10-19T05:21:26Z</time>
      </trkpt>
      <trkpt lat="45.92629" lon="2.92178">
        <ele>886</ele>
        <time>2015-10-19T05:23:26Z</time>
      </trkpt>
      <trkpt lat="45.92644" lon="2.92135">
        <ele>886</ele>
        <time>2015-10-19T05:25:26Z</time>
      </trkpt>
      <trkpt lat="45.92594" lon="2.92068">
        <ele>895</ele>
        <time>2015-10-19T05:27:26Z</time>
      </trkpt>
      <trkpt lat="45.92589" lon="2.92041">
        <ele>896</ele>
        <time>2015-10-19T05:29:26Z</time>
      </trkpt>
      <trkpt lat="45.92579" lon="2.92012">
        <ele>898</ele>
        <time>2015-10-19T05:31:26Z</time>
      </trkpt>
      <trkpt lat="45.92573" lon="2.91972">
        <ele>897</ele>
        <time>2015-10-19T05:33:26Z</time>
      </trkpt>
      <trkpt lat="45.92564" lon="2.91931">
        <ele>896</ele>
        <time>2015-10-19T05:35:26Z</time>
      </trkpt>
      <trkpt lat="45.92565" lon="2.91885">
        <ele>896</ele>
        <time>2015-10-19T05:37:26Z</time>
      </trkpt>
      <trkpt lat="45.92568" lon="2.91835">
        <ele>896</ele>
        <time>2015-10-19T05:39:26Z</time>
      </trkpt>
      <trkpt lat="45.92564" lon="2.91785">
        <ele>898</ele>
        <time>2015-10-19T05:41:26Z</time>
      </trkpt>
      <trkpt lat="45.92564" lon="2.91748">
        <ele>898</ele>
        <time>2015-10-19T05:43:26Z</time>
      </trkpt>
      <trkpt lat="45.92567" lon="2.91729">
        <ele>898</ele>
        <time>2015-10-19T05:45:26Z</time>
      </trkpt>
      <trkpt lat="45.92575" lon="2.91708">
        <ele>896</ele>
        <time>2015-10-19T05:47:26Z</time>
      </trkpt>
      <trkpt lat="45.92584" lon="2.91673">
        <ele>895</ele>
        <time>2015-10-19T05:49:26Z</time>
      </trkpt>
      <trkpt lat="45.92581" lon="2.91644">
        <ele>894</ele>
        <time>2015-10-19T05:51:26Z</time>
      </trkpt>
      <trkpt lat="45.92568" lon="2.91634">
        <ele>896</ele>
        <time>2015-10-19T05:53:26Z</time>
      </trkpt>
      <trkpt lat="45.92487" lon="2.91595">
        <ele>910</ele>
        <time>2015-10-19T05:55:26Z</time>
      </trkpt>
      <trkpt lat="45.92471" lon="2.916">
        <ele>912</ele>
        <time>2015-10-19T05:57:26Z</time>
      </trkpt>
      <trkpt lat="45.9245" lon="2.91597">
        <ele>914</ele>
        <time>2015-10-19T05:59:26Z</time>
      </trkpt>
      <trkpt lat="45.92425" lon="2.9157">
        <ele>913</ele>
        <time>2015-10-19T06:01:26Z</time>
      </trkpt>
      <trkpt lat="45.92407" lon="2.91451">
        <ele>908</ele>
        <time>2015-10-19T06:03:26Z</time>
      </trkpt>
      <trkpt lat="45.9239" lon="2.91341">
        <ele>907</ele>
        <time>2015-10-19T06:05:26Z</time>
      </trkpt>
      <trkpt lat="45.92372" lon="2.91252">
        <ele>907</ele>
        <time>2015-10-19T06:07:26Z</time>
      </trkpt>
      <trkpt lat="45.92337" lon="2.91224">
        <ele>909</ele>
        <time>2015-10-19T06:09:26Z</time>
      </trkpt>
      <trkpt lat="45.92323" lon="2.91205">
        <ele>909</ele>
        <time>2015-10-19T06:11:26Z</time>
      </trkpt>
      <trkpt lat="45.923" lon="2.91157">
        <ele>907</ele>
        <time>2015-10-19T06:13:26Z</time>
      </trkpt>
      <trkpt lat="45.92276" lon="2.91089">
        <ele>903</ele>
        <time>2015-10-19T06:15:26Z</time>
      </trkpt>
      <trkpt lat="45.92256" lon="2.91067">
        <ele>904</ele>
        <time>2015-10-19T06:17:26Z</time>
      </trkpt>
      <trkpt lat="45.9222" lon="2.91027">
        <ele>902</ele>
        <time>2015-10-19T06:19:26Z</time>
      </trkpt>
      <trkpt lat="45.92188" lon="2.91003">
        <ele>900</ele>
        <time>2015-10-19T06:21:26Z</time>
      </trkpt>
      <trkpt lat="45.92168" lon="2.90983">
        <ele>899</ele>
        <time>2015-10-19T06:23:26Z</time>
      </trkpt>
      <trkpt lat="45.92114" lon="2.90939">
        <ele>893</ele>
        <time>2015-10-19T06:25:26Z</time>
      </trkpt>
      <trkpt lat="45.92082" lon="2.90913">
        <ele>889</ele>
        <time>2015-10-19T06:27:26Z</time>
      </trkpt>
      <trkpt lat="45.92059" lon="2.90916">
        <ele>885</ele>
        <time>2015-10-19T06:29:26Z</time>
      </trkpt>
      <trkpt lat="45.92038" lon="2.90931">
        <ele>884</ele>
        <time>2015-10-19T06:31:26Z</time>
      </trkpt>
      <trkpt lat="45.92021" lon="2.90944">
        <ele>882</ele>
        <time>2015-10-19T06:33:26Z</time>
      </trkpt>
      <trkpt lat="45.92001" lon="2.90939">
        <ele>879</ele>
        <time>2015-10-19T06:35:26Z</time>
      </trkpt>
      <trkpt lat="45.91977" lon="2.90922">
        <ele>875</ele>
        <time>2015-10-19T06:37:26Z</time>
      </trkpt>
      <trkpt lat="45.9196" lon="2.90906">
        <ele>872</ele>
        <time>2015-10-19T06:39:26Z</time>
      </trkpt>
      <trkpt lat="45.91922" lon="2.90896">
        <ele>868</ele>
        <time>2015-10-19T06:41:26Z</time>
      </trkpt>
      <trkpt lat="45.91918" lon="2.90868">
        <ele>866</ele>
        <time>2015-10-19T06:43:26Z</time>
      </trkpt>
      <trkpt lat="45.91907" lon="2.90878">
        <ele>866</ele>
        <time>2015-10-19T06:45:26Z</time>
      </trkpt>
      <trkpt lat="45.91895" lon="2.90887">
        <ele>865</ele>
        <time>2015-10-19T06:47:26Z</time>
      </trkpt>
      <trkpt lat="45.91882" lon="2.90878">
        <ele>863</ele>
        <time>2015-10-19T06:49:26Z</time>
      </trkpt>
      <trkpt lat="45.9187" lon="2.90861">
        <ele>862</ele>
        <time>2015-10-19T06:51:26Z</time>
      </trkpt>
      <trkpt lat="45.91853" lon="2.90841">
        <ele>860</ele>
        <time>2015-10-19T06:53:26Z</time>
      </trkpt>
      <trkpt lat="45.91827" lon="2.90857">
        <ele>858</ele>
        <time>2015-10-19T06:55:26Z</time>
      </trkpt>
      <trkpt lat="45.91812" lon="2.90875">
        <ele>857</ele>
        <time>2015-10-19T06:57:26Z</time>
      </trkpt>
      <trkpt lat="45.91794" lon="2.90904">
        <ele>855</ele>
        <time>2015-10-19T06:59:26Z</time>
      </trkpt>
      <trkpt lat="45.91791" lon="2.90927">
        <ele>854</ele>
        <time>2015-10-19T07:01:26Z</time>
      </trkpt>
      <trkpt lat="45.91795" lon="2.90951">
        <ele>855</ele>
        <time>2015-10-19T07:03:26Z</time>
      </trkpt>
      <trkpt lat="45.91794" lon="2.90969">
        <ele>855</ele>
        <time>2015-10-19T07:05:26Z</time>
      </trkpt>
      <trkpt lat="45.91787" lon="2.90987">
        <ele>854</ele>
        <time>2015-10-19T07:07:26Z</time>
      </trkpt>
      <trkpt lat="45.91774" lon="2.91003">
        <ele>852</ele>
        <time>2015-10-19T07:09:26Z</time>
      </trkpt>
      <trkpt lat="45.91761" lon="2.91018">
        <ele>851</ele>
        <time>2015-10-19T07:11:26Z</time>
      </trkpt>
      <trkpt lat="45.9175" lon="2.91019">
        <ele>849</ele>
        <time>2015-10-19T07:13:26Z</time>
      </trkpt>
      <trkpt lat="45.91736" lon="2.91027">
        <ele>848</ele>
        <time>2015-10-19T07:15:26Z</time>
      </trkpt>
      <trkpt lat="45.91722" lon="2.91048">
        <ele>847</ele>
        <time>2015-10-19T07:17:26Z</time>
      </trkpt>
      <trkpt lat="45.91705" lon="2.91084">
        <ele>845</ele>
        <time>2015-10-19T07:19:26Z</time>
      </trkpt>
      <trkpt lat="45.9169" lon="2.91124">
        <ele>845</ele>
        <time>2015-10-19T07:21:26Z</time>
      </trkpt>
      <trkpt lat="45.91668" lon="2.91205">
        <ele>845</ele>
        <time>2015-10-19T07:23:26Z</time>
      </trkpt>
      <trkpt lat="45.91661" lon="2.91232">
        <ele>846</ele>
        <time>2015-10-19T07:25:26Z</time>
      </trkpt>
      <trkpt lat="45.91652" lon="2.91244">
        <ele>847</ele>
        <time>2015-10-19T07:27:26Z</time>
      </trkpt>
      <trkpt lat="45.91637" lon="2.91255">
        <ele>848</ele>
        <time>2015-10-19T07:29:26Z</time>
      </trkpt>
      <trkpt lat="45.91625" lon="2.91272">
        <ele>850</ele>
        <time>2015-10-19T07:31:26Z</time>
      </trkpt>
      <trkpt lat="45.91614" lon="2.9129">
        <ele>852</ele>
        <time>2015-10-19T07:33:26Z</time>
      </trkpt>
      <trkpt lat="45.91596" lon="2.91303">
        <ele>854</ele>
        <time>2015-10-19T07:35:26Z</time>
      </trkpt>
      <trkpt lat="45.91584" lon="2.9128">
        <ele>854</ele>
        <time>2015-10-19T07:37:26Z</time>
      </trkpt>
      <trkpt lat="45.91575" lon="2.91259">
        <ele>854</ele>
        <time>2015-10-19T07:39:26Z</time>
      </trkpt>
      <trkpt lat="45.91564" lon="2.91239">
        <ele>855</ele>
        <time>2015-10-19T07:41:26Z</time>
      </trkpt>
      <trkpt lat="45.91548" lon="2.91248">
        <ele>859</ele>
        <time>2015-10-19T07:43:26Z</time>
      </trkpt>
      <trkpt lat="45.91536" lon="2.91265">
        <ele>862</ele>
        <time>2015-10-19T07:45:26Z</time>
      </trkpt>
      <trkpt lat="45.91527" lon="2.91352">
        <ele>869</ele>
        <time>2015-10-19T07:47:26Z</time>
      </trkpt>
      <trkpt lat="45.91511" lon="2.91367">
        <ele>872</ele>
        <time>2015-10-19T07:49:26Z</time>
      </trkpt>
      <trkpt lat="45.91502" lon="2.91414">
        <ele>875</ele>
        <time>2015-10-19T07:51:26Z</time>
      </trkpt>
      <trkpt lat="45.91496" lon="2.91481">
        <ele>878</ele>
        <time>2015-10-19T07:53:26Z</time>
      </trkpt>
      <trkpt lat="45.91492" lon="2.91526">
        <ele>881</ele>
        <time>2015-10-19T07:55:26Z</time>
      </trkpt>
      <trkpt lat="45.91481" lon="2.91542">
        <ele>884</ele>
        <time>2015-10-19T07:57:26Z</time>
      </trkpt>
      <trkpt lat="45.91461" lon="2.91551">
        <ele>889</ele>
        <time>2015-10-19T07:59:26Z</time>
      </trkpt>
      <trkpt lat="45.91438" lon="2.91552">
        <ele>894</ele>
        <time>2015-10-19T08:01:26Z</time>
      </trkpt>
      <trkpt lat="45.91424" lon="2.91534">
        <ele>896</ele>
        <time>2015-10-19T08:03:26Z</time>
      </trkpt>
      <trkpt lat="45.91374" lon="2.91452">
        <ele>897</ele>
        <time>2015-10-19T08:05:26Z</time>
      </trkpt>
      <trkpt lat="45.91356" lon="2.91414">
        <ele>895</ele>
        <time>2015-10-19T08:07:26Z</time>
      </trkpt>
      <trkpt lat="45.91318" lon="2.91362">
        <ele>893</ele>
        <time>2015-10-19T08:09:26Z</time>
      </trkpt>
      <trkpt lat="45.913" lon="2.91333">
        <ele>889</ele>
        <time>2015-10-19T08:11:26Z</time>
      </trkpt>
      <trkpt lat="45.91226" lon="2.91332">
        <ele>882</ele>
        <time>2015-10-19T08:13:26Z</time>
      </trkpt>
      <trkpt lat="45.91175" lon="2.91336">
        <ele>875</ele>
        <time>2015-10-19T08:15:26Z</time>
      </trkpt>
      <trkpt lat="45.91146" lon="2.91331">
        <ele>871</ele>
        <time>2015-10-19T08:17:26Z</time>
      </trkpt>
      <trkpt lat="45.91113" lon="2.91336">
        <ele>867</ele>
        <time>2015-10-19T08:19:26Z</time>
      </trkpt>
      <trkpt lat="45.91097" lon="2.91356">
        <ele>867</ele>
        <time>2015-10-19T08:21:26Z</time>
      </trkpt>
      <trkpt lat="45.91075" lon="2.91376">
        <ele>866</ele>
        <time>2015-10-19T08:23:26Z</time>
      </trkpt>
      <trkpt lat="45.91031" lon="2.91363">
        <ele>859</ele>
        <time>2015-10-19T08:25:26Z</time>
      </trkpt>
      <trkpt lat="45.91008" lon="2.91376">
        <ele>858</ele>
        <time>2015-10-19T08:27:26Z</time>
      </trkpt>
      <trkpt lat="45.90993" lon="2.91383">
        <ele>858</ele>
        <time>2015-10-19T08:29:26Z</time>
      </trkpt>
      <trkpt lat="45.90976" lon="2.91371">
        <ele>854</ele>
        <time>2015-10-19T08:31:26Z</time>
      </trkpt>
      <trkpt lat="45.90964" lon="2.91351">
        <ele>851</ele>
        <time>2015-10-19T08:33:26Z</time>
      </trkpt>
      <trkpt lat="45.90949" lon="2.91341">
        <ele>849</ele>
        <time>2015-10-19T08:35:26Z</time>
      </trkpt>
      <trkpt lat="45.90931" lon="2.91308">
        <ele>845</ele>
        <time>2015-10-19T08:37:26Z</time>
      </trkpt>
      <trkpt lat="45.90915" lon="2.91312">
        <ele>844</ele>
        <time>2015-10-19T08:39:26Z</time>
      </trkpt>
      <trkpt lat="45.90905" lon="2.9135">
        <ele>846</ele>
        <time>2015-10-19T08:41:26Z</time>
      </trkpt>
      <trkpt lat="45.90896" lon="2.91369">
        <ele>845</ele>
        <time>2015-10-19T08:43:26Z</time>
      </trkpt>
      <trkpt lat="45.90876" lon="2.9136">
        <ele>844</ele>
        <time>2015-10-19T08:45:26Z</time>
      </trkpt>
      <trkpt lat="45.90856" lon="2.91358">
        <ele>842</ele>
        <time>2015-10-19T08:47:26Z</time>
      </trkpt>
      <trkpt lat="45.90834" lon="2.91366">
        <ele>841</ele>
        <time>2015-10-19T08:49:26Z</time>
      </trkpt>
      <trkpt lat="45.90816" lon="2.91384">
        <ele>840</ele>
        <time>2015-10-19T08:51:26Z</time>
      </trkpt>
      <trkpt lat="45.90793" lon="2.91436">
        <ele>838</ele>
        <time>2015-10-19T08:53:26Z</time>
      </trkpt>
      <trkpt lat="45.90789" lon="2.9148">
        <ele>836</ele>
        <time>2015-10-19T08:55:26Z</time>
      </trkpt>
      <trkpt lat="45.90788" lon="2.91512">
        <ele>836</ele>
        <time>2015-10-19T08:57:26Z</time>
      </trkpt>
      <trkpt lat="45.90769" lon="2.91517">
        <ele>835</ele>
        <time>2015-10-19T08:59:26Z</time>
      </trkpt>
      <trkpt lat="45.90734" lon="2.91518">
        <ele>833</ele>
        <time>2015-10-19T09:01:26Z</time>
      </trkpt>
      <trkpt lat="45.90707" lon="2.91522">
        <ele>833</ele>
        <time>2015-10-19T09:03:26Z</time>
      </trkpt>
      <trkpt lat="45.90695" lon="2.91534">
        <ele>834</ele>
        <time>2015-10-19T09:05:26Z</time>
      </trkpt>
      <trkpt lat="45.90678" lon="2.91569">
        <ele>834</ele>
        <time>2015-10-19T09:07:26Z</time>
      </trkpt>
      <trkpt lat="45.90662" lon="2.9159">
        <ele>834</ele>
        <time>2015-10-19T09:09:26Z</time>
      </trkpt>
      <trkpt lat="45.90633" lon="2.91615">
        <ele>836</ele>
        <time>2015-10-19T09:11:26Z</time>
      </trkpt>
      <trkpt lat="45.90589" lon="2.9165">
        <ele>839</ele>
        <time>2015-10-19T09:13:26Z</time>
      </trkpt>
      <trkpt lat="45.90569" lon="2.91655">
        <ele>839</ele>
        <time>2015-10-19T09:15:26Z</time>
      </trkpt>
      <trkpt lat="45.90535" lon="2.91656">
        <ele>841</ele>
        <time>2015-10-19T09:17:26Z</time>
      </trkpt>
      <trkpt lat="45.90497" lon="2.91666">
        <ele>842</ele>
        <time>2015-10-19T09:19:26Z</time>
      </trkpt>
      <trkpt lat="45.90469" lon="2.91685">
        <ele>842</ele>
        <time>2015-10-19T09:21:26Z</time>
      </trkpt>
      <trkpt lat="45.90429" lon="2.91716">
        <ele>844</ele>
        <time>2015-10-19T09:23:26Z</time>
      </trkpt>
      <trkpt lat="45.90407" lon="2.91739">
        <ele>844</ele>
        <time>2015-10-19T09:25:26Z</time>
      </trkpt>
      <trkpt lat="45.9036" lon="2.91759">
        <ele>845</ele>
        <time>2015-10-19T09:27:26Z</time>
      </trkpt>
      <trkpt lat="45.90344" lon="2.91744">
        <ele>846</ele>
        <time>2015-10-19T09:29:26Z</time>
      </trkpt>
      <trkpt lat="45.90324" lon="2.91726">
        <ele>847</ele>
        <time>2015-10-19T09:31:26Z</time>
      </trkpt>
      <trkpt lat="45.90304" lon="2.91693">
        <ele>849</ele>
        <time>2015-10-19T09:33:26Z</time>
      </trkpt>
      <trkpt lat="45.90288" lon="2.91659">
        <ele>850</ele>
        <time>2015-10-19T09:35:26Z</time>
      </trkpt>
      <trkpt lat="45.90265" lon="2.91639">
        <ele>851</ele>
        <time>2015-10-19T09:37:26Z</time>
      </trkpt>
      <trkpt lat="45.9023" lon="2.91606">
        <ele>852</ele>
        <time>2015-10-19T09:39:26Z</time>
      </trkpt>
      <trkpt lat="45.90221" lon="2.91583">
        <ele>852</ele>
        <time>2015-10-19T09:41:26Z</time>
      </trkpt>
      <trkpt lat="45.90208" lon="2.9157">
        <ele>852</ele>
        <time>2015-10-19T09:43:26Z</time>
      </trkpt>
      <trkpt lat="45.90209" lon="2.91537">
        <ele>852</ele>
        <time>2015-10-19T09:45:26Z</time>
      </trkpt>
      <trkpt lat="45.90209" lon="2.91514">
        <ele>852</ele>
        <time>2015-10-19T09:47:26Z</time>
      </trkpt>
      <trkpt lat="45.90111" lon="2.91436">
        <ele>853</ele>
        <time>2015-10-19T09:49:26Z</time>
      </trkpt>
      <trkpt lat="45.90024" lon="2.91387">
        <ele>855</ele>
        <time>2015-10-19T09:51:26Z</time>
      </trkpt>
      <trkpt lat="45.89975" lon="2.91362">
        <ele>855</ele>
        <time>2015-10-19T09:53:26Z</time>
      </trkpt>
      <trkpt lat="45.89897" lon="2.9134">
        <ele>855</ele>
        <time>2015-10-19T09:55:26Z</time>
      </trkpt>
      <trkpt lat="45.89838" lon="2.91325">
        <ele>854</ele>
        <time>2015-10-19T09:57:26Z</time>
      </trkpt>
      <trkpt lat="45.89778" lon="2.91304">
        <ele>853</ele>
        <time>2015-10-19T09:59:26Z</time>
      </trkpt>
      <trkpt lat="45.89706" lon="2.91302">
        <ele>852</ele>
        <time>2015-10-19T10:01:26Z</time>
      </trkpt>
      <trkpt lat="45.89595" lon="2.91311">
        <ele>853</ele>
        <time>2015-10-19T10:03:26Z</time>
      </trkpt>
      <trkpt lat="45.89529" lon="2.91312">
        <ele>848</ele>
        <time>2015-10-19T10:05:26Z</time>
      </trkpt>
      <trkpt lat="45.89474" lon="2.91292">
        <ele>844</ele>
        <time>2015-10-19T10:07:26Z</time>
      </trkpt>
      <trkpt lat="45.89409" lon="2.91288">
        <ele>842</ele>
        <time>2015-10-19T10:09:26Z</time>
      </trkpt>
      <trkpt lat="45.89331" lon="2.91304">
        <ele>844</ele>
        <time>2015-10-19T10:11:26Z</time>
      </trkpt>
      <trkpt lat="45.89302" lon="2.91355">
        <ele>845</ele>
        <time>2015-10-19T10:13:26Z</time>
      </trkpt>
      <trkpt lat="45.89277" lon="2.91408">
        <ele>846</ele>
        <time>2015-10-19T10:15:26Z</time>
      </trkpt>
      <trkpt lat="45.89219" lon="2.9136">
        <ele>845</ele>
        <time>2015-10-19T10:17:26Z</time>
      </trkpt>
      <trkpt lat="45.89173" lon="2.91322">
        <ele>846</ele>
        <time>2015-10-19T10:19:26Z</time>
      </trkpt>
      <trkpt lat="45.89138" lon="2.91287">
        <ele>847</ele>
        <time>2015-10-19T10:21:26Z</time>
      </trkpt>
      <trkpt lat="45.8911" lon="2.91265">
        <ele>847</ele>
        <time>2015-10-19T10:23:26Z</time>
      </trkpt>
      <trkpt lat="45.89084" lon="2.9128">
        <ele>848</ele>
        <time>2015-10-19T10:25:26Z</time>
      </trkpt>
      <trkpt lat="45.89059" lon="2.91294">
        <ele>848</ele>
        <time>2015-10-19T10:27:26Z</time>
      </trkpt>
      <trkpt lat="45.89036" lon="2.91316">
        <ele>848</ele>
        <time>2015-10-19T10:29:26Z</time>
      </trkpt>
      <trkpt lat="45.89047" lon="2.91337">
        <ele>848</ele>
        <time>2015-10-19T10:31:26Z</time>
      </trkpt>
      <trkpt lat="45.89048" lon="2.91377">
        <ele>847</ele>
        <time>2015-10-19T10:33:26Z</time>
      </trkpt>
      <trkpt lat="45.89045" lon="2.91407">
        <ele>846</ele>
        <time>2015-10-19T10:35:26Z</time>
      </trkpt>
      <trkpt lat="45.89005" lon="2.91461">
        <ele>847</ele>
        <time>2015-10-19T10:37:26Z</time>
      </trkpt>
      <trkpt lat="45.88984" lon="2.91483">
        <ele>847</ele>
        <time>2015-10-19T10:39:26Z</time>
      </trkpt>
      <trkpt lat="45.88965" lon="2.91503">
        <ele>848</ele>
        <time>2015-10-19T10:41:26Z</time>
      </trkpt>
      <trkpt lat="45.88945" lon="2.91513">
        <ele>849</ele>
        <time>2015-10-19T10:43:26Z</time>
      </trkpt>
      <trkpt lat="45.88952" lon="2.91528">
        <ele>848</ele>
        <time>2015-10-19T10:45:26Z</time>
      </trkpt>
      <trkpt lat="45.88987" lon="2.91529">
        <ele>846</ele>
        <time>2015-10-19T10:47:26Z</time>
      </trkpt>
      <trkpt lat="45.89018" lon="2.9154">
        <ele>845</ele>
        <time>2015-10-19T10:49:26Z</time>
      </trkpt>
      <trkpt lat="45.89031" lon="2.91559">
        <ele>844</ele>
        <time>2015-10-19T10:51:26Z</time>
      </trkpt>
      <trkpt lat="45.89028" lon="2.91582">
        <ele>844</ele>
        <time>2015-10-19T10:53:26Z</time>
      </trkpt>
      <trkpt lat="45.89024" lon="2.91597">
        <ele>845</ele>
        <time>2015-10-19T10:55:26Z</time>
      </trkpt>
      <trkpt lat="45.89015" lon="2.91592">
        <ele>845</ele>
        <time>2015-10-19T10:57:26Z</time>
      </trkpt>
      <trkpt lat="45.88994" lon="2.91634">
        <ele>846</ele>
        <time>2015-10-19T10:59:26Z</time>
      </trkpt>
      <trkpt lat="45.88988" lon="2.91648">
        <ele>846</ele>
        <time>2015-10-19T11:01:26Z</time>
      </trkpt>
      <trkpt lat="45.88965" lon="2.91659">
        <ele>848</ele>
        <time>2015-10-19T11:03:26Z</time>
      </trkpt>
      <trkpt lat="45.88999" lon="2.91759">
        <ele>848</ele>
        <time>2015-10-19T11:05:26Z</time>
      </trkpt>
      <trkpt lat="45.89032" lon="2.91867">
        <ele>848</ele>
        <time>2015-10-19T11:07:26Z</time>
      </trkpt>
      <trkpt lat="45.89052" lon="2.91929">
        <ele>849</ele>
        <time>2015-10-19T11:09:26Z</time>
      </trkpt>
      <trkpt lat="45.89086" lon="2.9203">
        <ele>848</ele>
        <time>2015-10-19T11:11:26Z</time>
      </trkpt>
      <trkpt lat="45.89112" lon="2.92074">
        <ele>847</ele>
        <time>2015-10-19T11:13:26Z</time>
      </trkpt>
      <trkpt lat="45.89139" lon="2.92164">
        <ele>850</ele>
        <time>2015-10-19T11:15:26Z</time>
      </trkpt>
      <trkpt lat="45.89089" lon="2.9218">
        <ele>852</ele>
        <time>2015-10-19T11:17:26Z</time>
      </trkpt>
      <trkpt lat="45.88966" lon="2.9221">
        <ele>861</ele>
        <time>2015-10-19T11:19:26Z</time>
      </trkpt>
      <trkpt lat="45.88893" lon="2.9221">
        <ele>865</ele>
        <time>2015-10-19T11:21:26Z</time>
      </trkpt>
      <trkpt lat="45.88833" lon="2.92223">
        <ele>869</ele>
        <time>2015-10-19T11:23:26Z</time>
      </trkpt>
      <trkpt lat="45.88786" lon="2.92243">
        <ele>871</ele>
        <time>2015-10-19T11:25:26Z</time>
      </trkpt>
      <trkpt lat="45.88735" lon="2.92265">
        <ele>871</ele>
        <time>2015-10-19T11:27:26Z</time>
      </trkpt>
      <trkpt lat="45.88691" lon="2.92275">
        <ele>871</ele>
        <time>2015-10-19T11:29:26Z</time>
      </trkpt>
      <trkpt lat="45.88615" lon="2.92282">
        <ele>869</ele>
        <time>2015-10-19T11:31:26Z</time>
      </trkpt>
      <trkpt lat="45.88582" lon="2.92283">
        <ele>868</ele>
        <time>2015-10-19T11:33:26Z</time>
      </trkpt>
      <trkpt lat="45.88554" lon="2.92283">
        <ele>869</ele>
        <time>2015-10-19T11:35:26Z</time>
      </trkpt>
      <trkpt lat="45.88525" lon="2.92291">
        <ele>869</ele>
        <time>2015-10-19T11:37:26Z</time>
      </trkpt>
      <trkpt lat="45.88482" lon="2.92313">
        <ele>870</ele>
        <time>2015-10-19T11:39:26Z</time>
      </trkpt>
      <trkpt lat="45.88493" lon="2.92341">
        <ele>870</ele>
        <time>2015-10-19T11:41:26Z</time>
      </trkpt>
      <trkpt lat="45.88542" lon="2.9243">
        <ele>869</ele>
        <time>2015-10-19T11:43:26Z</time>
      </trkpt>
      <trkpt lat="45.88564" lon="2.92499">
        <ele>866</ele>
        <time>2015-10-19T11:45:26Z</time>
      </trkpt>
      <trkpt lat="45.88556" lon="2.9252">
        <ele>867</ele>
        <time>2015-10-19T11:47:26Z</time>
      </trkpt>
      <trkpt lat="45.88542" lon="2.92533">
        <ele>868</ele>
        <time>2015-10-19T11:49:26Z</time>
      </trkpt>
      <trkpt lat="45.88508" lon="2.92568">
        <ele>871</ele>
        <time>2015-10-19T11:51:26Z</time>
      </trkpt>
      <trkpt lat="45.88484" lon="2.92601">
        <ele>875</ele>
        <time>2015-10-19T11:53:26Z</time>
      </trkpt>
      <trkpt lat="45.88473" lon="2.92644">
        <ele>875</ele>
        <time>2015-10-19T11:55:26Z</time>
      </trkpt>
      <trkpt lat="45.88473" lon="2.92672">
        <ele>873</ele>
        <time>2015-10-19T11:57:26Z</time>
      </trkpt>
      <trkpt lat="45.88474" lon="2.92724">
        <ele>873</ele>
        <time>2015-10-19T11:59:26Z</time>
      </trkpt>
      <trkpt lat="45.88481" lon="2.92852">
        <ele>871</ele>
        <time>2015-10-19T12:01:26Z</time>
      </trkpt>
      <trkpt lat="45.88476" lon="2.92911">
        <ele>874</ele>
        <time>2015-10-19T12:03:26Z</time>
      </trkpt>
      <trkpt lat="45.88479" lon="2.92954">
        <ele>876</ele>
        <time>2015-10-19T12:05:26Z</time>
      </trkpt>
      <trkpt lat="45.88501" lon="2.93024">
        <ele>879</ele>
        <time>2015-10-19T12:07:26Z</time>
      </trkpt>
      <trkpt lat="45.88517" lon="2.93063">
        <ele>879</ele>
        <time>2015-10-19T12:09:26Z</time>
      </trkpt>
      <trkpt lat="45.88529" lon="2.93105">
        <ele>878</ele>
        <time>2015-10-19T12:11:26Z</time>
      </trkpt>
      <trkpt lat="45.88547" lon="2.9319">
        <ele>877</ele>
        <time>2015-10-19T12:13:26Z</time>
      </trkpt>
      <trkpt lat="45.88558" lon="2.93208">
        <ele>877</ele>
        <time>2015-10-19T12:15:26Z</time>
      </trkpt>
      <trkpt lat="45.88553" lon="2.93229">
        <ele>879</ele>
        <time>2015-10-19T12:17:26Z</time>
      </trkpt>
      <trkpt lat="45.88536" lon="2.93245">
        <ele>881</ele>
        <time>2015-10-19T12:19:26Z</time>
      </trkpt>
      <trkpt lat="45.88514" lon="2.93234">
        <ele>883</ele>
        <time>2015-10-19T12:21:26Z</time>
      </trkpt>
      <trkpt lat="45.88424" lon="2.93107">
        <ele>890</ele>
        <time>2015-10-19T12:23:26Z</time>
      </trkpt>
      <trkpt lat="45.88365" lon="2.93054">
        <ele>893</ele>
        <time>2015-10-19T12:25:26Z</time>
      </trkpt>
      <trkpt lat="45.88333" lon="2.93031">
        <ele>894</ele>
        <time>2015-10-19T12:27:26Z</time>
      </trkpt>
      <trkpt lat="45.88269" lon="2.9302">
        <ele>893</ele>
        <time>2015-10-19T12:29:26Z</time>
      </trkpt>
      <trkpt lat="45.88237" lon="2.93019">
        <ele>893</ele>
        <time>2015-10-19T12:31:26Z</time>
      </trkpt>
      <trkpt lat="45.88137" lon="2.93043">
        <ele>891</ele>
        <time>2015-10-19T12:33:26Z</time>
      </trkpt>
      <trkpt lat="45.88063" lon="2.93065">
        <ele>889</ele>
        <time>2015-10-19T12:35:26Z</time>
      </trkpt>
      <trkpt lat="45.88024" lon="2.93086">
        <ele>889</ele>
        <time>2015-10-19T12:37:26Z</time>
      </trkpt>
      <trkpt lat="45.87995" lon="2.93107">
        <ele>889</ele>
        <time>2015-10-19T12:39:26Z</time>
      </trkpt>
      <trkpt lat="45.87963" lon="2.93123">
        <ele>890</ele>
        <time>2015-10-19T12:41:26Z</time>
      </trkpt>
      <trkpt lat="45.87949" lon="2.93123">
        <ele>890</ele>
        <time>2015-10-19T12:43:26Z</time>
      </trkpt>
      <trkpt lat="45.87945" lon="2.93118">
        <ele>889</ele>
        <time>2015-10-19T12:45:26Z</time>
      </trkpt>
      <trkpt lat="45.87923" lon="2.932">
        <ele>890</ele>
        <time>2015-10-19T12:47:26Z</time>
      </trkpt>
      <trkpt lat="45.87917" lon="2.93227">
        <ele>889</ele>
        <time>2015-10-19T12:49:26Z</time>
      </trkpt>
      <trkpt lat="45.87865" lon="2.9322">
        <ele>890</ele>
        <time>2015-10-19T12:51:26Z</time>
      </trkpt>
      <trkpt lat="45.87818" lon="2.93183">
        <ele>891</ele>
        <time>2015-10-19T12:53:26Z</time>
      </trkpt>
      <trkpt lat="45.87772" lon="2.93151">
        <ele>890</ele>
        <time>2015-10-19T12:55:26Z</time>
      </trkpt>
      <trkpt lat="45.87738" lon="2.93137">
        <ele>889</ele>
        <time>2015-10-19T12:57:26Z</time>
      </trkpt>
      <trkpt lat="45.877" lon="2.93129">
        <ele>887</ele>
        <time>2015-10-19T12:59:26Z</time>
      </trkpt>
      <trkpt lat="45.87676" lon="2.93112">
        <ele>886</ele>
        <time>2015-10-19T13:01:26Z</time>
      </trkpt>
      <trkpt lat="45.87617" lon="2.93038">
        <ele>884</ele>
        <time>2015-10-19T13:03:26Z</time>
      </trkpt>
      <trkpt lat="45.87588" lon="2.9304">
        <ele>882</ele>
        <time>2015-10-19T13:05:26Z</time>
      </trkpt>
      <trkpt lat="45.87559" lon="2.93036">
        <ele>880</ele>
        <time>2015-10-19T13:07:26Z</time>
      </trkpt>
      <trkpt lat="45.87549" lon="2.93023">
        <ele>879</ele>
        <time>2015-10-19T13:09:26Z</time>
      </trkpt>
      <trkpt lat="45.87545" lon="2.92994">
        <ele>879</ele>
        <time>2015-10-19T13:11:26Z</time>
      </trkpt>
      <trkpt lat="45.87539" lon="2.9293">
        <ele>880</ele>
        <time>2015-10-19T13:13:26Z</time>
      </trkpt>
      <trkpt lat="45.87514" lon="2.92916">
        <ele>878</ele>
        <time>2015-10-19T13:15:26Z</time>
      </trkpt>
      <trkpt lat="45.87487" lon="2.92909">
        <ele>876</ele>
        <time>2015-10-19T13:17:26Z</time>
      </trkpt>
      <trkpt lat="45.87473" lon="2.92883">
        <ele>873</ele>
        <time>2015-10-19T13:19:26Z</time>
      </trkpt>
      <trkpt lat="45.87446" lon="2.92835">
        <ele>871</ele>
        <time>2015-10-19T13:21:26Z</time>
      </trkpt>
      <trkpt lat="45.87408" lon="2.92782">
        <ele>869</ele>
        <time>2015-10-19T13:23:26Z</time>
      </trkpt>
      <trkpt lat="45.87382" lon="2.92739">
        <ele>869</ele>
        <time>2015-10-19T13:25:26Z</time>
      </trkpt>
      <trkpt lat="45.87372" lon="2.92712">
        <ele>870</ele>
        <time>2015-10-19T13:27:26Z</time>
      </trkpt>
      <trkpt lat="45.87339" lon="2.92605">
        <ele>875</ele>
        <time>2015-10-19T13:29:26Z</time>
      </trkpt>
      <trkpt lat="45.87325" lon="2.92562">
        <ele>876</ele>
        <time>2015-10-19T13:31:26Z</time>
      </trkpt>
      <trkpt lat="45.8731" lon="2.92525">
        <ele>877</ele>
        <time>2015-10-19T13:33:26Z</time>
      </trkpt>
      <trkpt lat="45.87275" lon="2.92445">
        <ele>880</ele>
        <time>2015-10-19T13:35:26Z</time>
      </trkpt>
      <trkpt lat="45.87274" lon="2.92399">
        <ele>881</ele>
        <time>2015-10-19T13:37:26Z</time>
      </trkpt>
      <trkpt lat="45.87284" lon="2.92337">
        <ele>880</ele>
        <time>2015-10-19T13:39:26Z</time>
      </trkpt>
      <trkpt lat="45.87299" lon="2.92263">
        <ele>878</ele>
        <time>2015-10-19T13:41:26Z</time>
      </trkpt>
      <trkpt lat="45.87076" lon="2.92233">
        <ele>876</ele>
        <time>2015-10-19T13:43:26Z</time>
      </trkpt>
      <trkpt lat="45.87041" lon="2.92279">
        <ele>877</ele>
        <time>2015-10-19T13:45:26Z</time>
      </trkpt>
      <trkpt lat="45.86979" lon="2.92357">
        <ele>877</ele>
        <time>2015-10-19T13:47:26Z</time>
      </trkpt>
      <trkpt lat="45.86948" lon="2.92385">
        <ele>877</ele>
        <time>2015-10-19T13:49:26Z</time>
      </trkpt>
      <trkpt lat="45.869" lon="2.92424">
        <ele>876</ele>
        <time>2015-10-19T13:51:26Z</time>
      </trkpt>
      <trkpt lat="45.86862" lon="2.92457">
        <ele>876</ele>
        <time>2015-10-19T13:53:26Z</time>
      </trkpt>
      <trkpt lat="45.86819" lon="2.92489">
        <ele>874</ele>
        <time>2015-10-19T13:55:26Z</time>
      </trkpt>
      <trkpt lat="45.86729" lon="2.92534">
        <ele>874</ele>
        <time>2015-10-19T13:57:26Z</time>
      </trkpt>
      <trkpt lat="45.86683" lon="2.92554">
        <ele>877</ele>
        <time>2015-10-19T13:59:26Z</time>
      </trkpt>
      <trkpt lat="45.86638" lon="2.92579">
        <ele>882</ele>
        <time>2015-10-19T14:01:26Z</time>
      </trkpt>
      <trkpt lat="45.86621" lon="2.92617">
        <ele>883</ele>
        <time>2015-10-19T14:03:26Z</time>
      </trkpt>
      <trkpt lat="45.8661" lon="2.92661">
        <ele>882</ele>
        <time>2015-10-19T14:05:26Z</time>
      </trkpt>
      <trkpt lat="45.86587" lon="2.92719">
        <ele>881</ele>
        <time>2015-10-19T14:07:26Z</time>
      </trkpt>
      <trkpt lat="45.86542" lon="2.92774">
        <ele>878</ele>
        <time>2015-10-19T14:09:26Z</time>
      </trkpt>
      <trkpt lat="45.86522" lon="2.92811">
        <ele>877</ele>
        <time>2015-10-19T14:11:26Z</time>
      </trkpt>
      <trkpt lat="45.86508" lon="2.9284">
        <ele>876</ele>
        <time>2015-10-19T14:13:26Z</time>
      </trkpt>
      <trkpt lat="45.86491" lon="2.92879">
        <ele>875</ele>
        <time>2015-10-19T14:15:26Z</time>
      </trkpt>
      <trkpt lat="45.86488" lon="2.92911">
        <ele>874</ele>
        <time>2015-10-19T14:17:26Z</time>
      </trkpt>
      <trkpt lat="45.8649" lon="2.92951">
        <ele>872</ele>
        <time>2015-10-19T14:19:26Z</time>
      </trkpt>
      <trkpt lat="45.86489" lon="2.92974">
        <ele>871</ele>
        <time>2015-10-19T14:21:26Z</time>
      </trkpt>
      <trkpt lat="45.8648" lon="2.93008">
        <ele>869</ele>
        <time>2015-10-19T14:23:26Z</time>
      </trkpt>
      <trkpt lat="45.86454" lon="2.93072">
        <ele>865</ele>
        <time>2015-10-19T14:25:26Z</time>
      </trkpt>
      <trkpt lat="45.86433" lon="2.93095">
        <ele>864</ele>
        <time>2015-10-19T14:27:26Z</time>
      </trkpt>
      <trkpt lat="45.86413" lon="2.93113">
        <ele>863</ele>
        <time>2015-10-19T14:29:26Z</time>
      </trkpt>
      <trkpt lat="45.86385" lon="2.93141">
        <ele>862</ele>
        <time>2015-10-19T14:31:26Z</time>
      </trkpt>
      <trkpt lat="45.8636" lon="2.93158">
        <ele>861</ele>
        <time>2015-10-19T14:33:26Z</time>
      </trkpt>
      <trkpt lat="45.86331" lon="2.93175">
        <ele>860</ele>
        <time>2015-10-19T14:35:26Z</time>
      </trkpt>
      <trkpt lat="45.86312" lon="2.93183">
        <ele>861</ele>
        <time>2015-10-19T14:37:26Z</time>
      </trkpt>
      <trkpt lat="45.86277" lon="2.93198">
        <ele>864</ele>
        <time>2015-10-19T14:39:26Z</time>
      </trkpt>
      <trkpt lat="45.86238" lon="2.93186">
        <ele>866</ele>
        <time>2015-10-19T14:41:26Z</time>
      </trkpt>
      <trkpt lat="45.86203" lon="2.93186">
        <ele>869</ele>
        <time>2015-10-19T14:43:26Z</time>
      </trkpt>
      <trkpt lat="45.86159" lon="2.93212">
        <ele>874</ele>
        <time>2015-10-19T14:45:26Z</time>
      </trkpt>
      <trkpt lat="45.86136" lon="2.93221">
        <ele>876</ele>
        <time>2015-10-19T14:47:26Z</time>
      </trkpt>
      <trkpt lat="45.86084" lon="2.93236">
        <ele>878</ele>
        <time>2015-10-19T14:49:26Z</time>
      </trkpt>
      <trkpt lat="45.86057" lon="2.93232">
        <ele>878</ele>
        <time>2015-10-19T14:51:26Z</time>
      </trkpt>
      <trkpt lat="45.86013" lon="2.93189">
        <ele>876</ele>
        <time>2015-10-19T14:53:26Z</time>
      </trkpt>
      <trkpt lat="45.85998" lon="2.93157">
        <ele>875</ele>
        <time>2015-10-19T14:55:26Z</time>
      </trkpt>
      <trkpt lat="45.86006" lon="2.93086">
        <ele>877</ele>
        <time>2015-10-19T14:57:26Z</time>
      </trkpt>
      <trkpt lat="45.86038" lon="2.92937">
        <ele>879</ele>
        <time>2015-10-19T14:59:26Z</time>
      </trkpt>
      <trkpt lat="45.86038" lon="2.92898">
        <ele>880</ele>
        <time>2015-10-19T15:01:26Z</time>
      </trkpt>
      <trkpt lat="45.86043" lon="2.92854">
        <ele>881</ele>
        <time>2015-10-19T15:03:26Z</time>
      </trkpt>
      <trkpt lat="45.86037" lon="2.92838">
        <ele>882</ele>
        <time>2015-10-19T15:05:26Z</time>
      </trkpt>
      <trkpt lat="45.86036" lon="2.92797">
        <ele>882</ele>
        <time>2015-10-19T15:07:26Z</time>
      </trkpt>
      <trkpt lat="45.86024" lon="2.92695">
        <ele>882</ele>
        <time>2015-10-19T15:09:26Z</time>
      </trkpt>
      <trkpt lat="45.86022" lon="2.92674">
        <ele>881</ele>
        <time>2015-10-19T15:11:26Z</time>
      </trkpt>
      <trkpt lat="45.86015" lon="2.92633">
        <ele>880</ele>
        <time>2015-10-19T15:13:26Z</time>
      </trkpt>
      <trkpt lat="45.86012" lon="2.92572">
        <ele>879</ele>
        <time>2015-10-19T15:15:26Z</time>
      </trkpt>
      <trkpt lat="45.86015" lon="2.92521">
        <ele>878</ele>
        <time>2015-10-19T15:17:26Z</time>
      </trkpt>
      <trkpt lat="45.86019" lon="2.92457">
        <ele>878</ele>
        <time>2015-10-19T15:19:26Z</time>
      </trkpt>
      <trkpt lat="45.8601" lon="2.92432">
        <ele>879</ele>
        <time>2015-10-19T15:21:26Z</time>
      </trkpt>
      <trkpt lat="45.86002" lon="2.9241">
        <ele>880</ele>
        <time>2015-10-19T15:23:26Z</time>
      </trkpt>
      <trkpt lat="45.85986" lon="2.9239">
        <ele>880</ele>
        <time>2015-10-19T15:25:26Z</time>
      </trkpt>
      <trkpt lat="45.85975" lon="2.92354">
        <ele>880</ele>
        <time>2015-10-19T15:27:26Z</time>
      </trkpt>
      <trkpt lat="45.85966" lon="2.92306">
        <ele>879</ele>
        <time>2015-10-19T15:29:26Z</time>
      </trkpt>
      <trkpt lat="45.85966" lon="2.92209">
        <ele>878</ele>
        <time>2015-10-19T15:31:26Z</time>
      </trkpt>
      <trkpt lat="45.85957" lon="2.92167">
        <ele>879</ele>
        <time>2015-10-19T15:33:26Z</time>
      </trkpt>
      <trkpt lat="45.8595" lon="2.92134">
        <ele>879</ele>
        <time>2015-10-19T15:35:26Z</time>
      </trkpt>
      <trkpt lat="45.85935" lon="2.92109">
        <ele>879</ele>
        <time>2015-10-19T15:37:26Z</time>
      </trkpt>
      <trkpt lat="45.85909" lon="2.92118">
        <ele>880</ele>
        <time>2015-10-19T15:39:26Z</time>
      </trkpt>
      <trkpt lat="45.85894" lon="2.92126">
        <ele>882</ele>
        <time>2015-10-19T15:41:26Z</time>
      </trkpt>
      <trkpt lat="45.85874" lon="2.92131">
        <ele>884</ele>
        <time>2015-10-19T15:43:26Z</time>
      </trkpt>
      <trkpt lat="45.85857" lon="2.92132">
        <ele>885</ele>
        <time>2015-10-19T15:45:26Z</time>
      </trkpt>
      <trkpt lat="45.85836" lon="2.9215">
        <ele>887</ele>
        <time>2015-10-19T15:47:26Z</time>
      </trkpt>
      <trkpt lat="45.85798" lon="2.92187">
        <ele>890</ele>
        <time>2015-10-19T15:49:26Z</time>
      </trkpt>
      <trkpt lat="45.85781" lon="2.922">
        <ele>891</ele>
        <time>2015-10-19T15:51:26Z</time>
      </trkpt>
      <trkpt lat="45.85767" lon="2.92211">
        <ele>891</ele>
        <time>2015-10-19T15:53:26Z</time>
      </trkpt>
      <trkpt lat="45.85739" lon="2.92225">
        <ele>892</ele>
        <time>2015-10-19T15:55:26Z</time>
      </trkpt>
      <trkpt lat="45.85718" lon="2.92236">
        <ele>892</ele>
        <time>2015-10-19T15:57:26Z</time>
      </trkpt>
      <trkpt lat="45.85682" lon="2.92248">
        <ele>893</ele>
        <time>2015-10-19T15:59:26Z</time>
      </trkpt>
      <trkpt lat="45.85653" lon="2.9219">
        <ele>894</ele>
        <time>2015-10-19T16:01:26Z</time>
      </trkpt>
      <trkpt lat="45.85626" lon="2.92132">
        <ele>895</ele>
        <time>2015-10-19T16:03:26Z</time>
      </trkpt>
      <trkpt lat="45.85602" lon="2.92093">
        <ele>895</ele>
        <time>2015-10-19T16:05:26Z</time>
      </trkpt>
      <trkpt lat="45.85588" lon="2.9207">
        <ele>894</ele>
        <time>2015-10-19T16:07:26Z</time>
      </trkpt>
      <trkpt lat="45.85576" lon="2.92055">
        <ele>894</ele>
        <time>2015-10-19T16:09:26Z</time>
      </trkpt>
      <trkpt lat="45.85548" lon="2.91996">
        <ele>893</ele>
        <time>2015-10-19T16:11:26Z</time>
      </trkpt>
      <trkpt lat="45.85531" lon="2.91975">
        <ele>892</ele>
        <time>2015-10-19T16:13:26Z</time>
      </trkpt>
      <trkpt lat="45.85487" lon="2.91913">
        <ele>891</ele>
        <time>2015-10-19T16:15:26Z</time>
      </trkpt>
      <trkpt lat="45.85428" lon="2.91799">
        <ele>891</ele>
        <time>2015-10-19T16:17:26Z</time>
      </trkpt>
      <trkpt lat="45.85401" lon="2.91752">
        <ele>891</ele>
        <time>2015-10-19T16:19:26Z</time>
      </trkpt>
      <trkpt lat="45.85396" lon="2.91709">
        <ele>889</ele>
        <time>2015-10-19T16:21:26Z</time>
      </trkpt>
      <trkpt lat="45.85388" lon="2.91666">
        <ele>887</ele>
        <time>2015-10-19T16:23:26Z</time>
      </trkpt>
      <trkpt lat="45.85384" lon="2.9163">
        <ele>886</ele>
        <time>2015-10-19T16:25:26Z</time>
      </trkpt>
      <trkpt lat="45.85379" lon="2.91591">
        <ele>886</ele>
        <time>2015-10-19T16:27:26Z</time>
      </trkpt>
      <trkpt lat="45.85359" lon="2.91578">
        <ele>886</ele>
        <time>2015-10-19T16:29:26Z</time>
      </trkpt>
      <trkpt lat="45.85339" lon="2.91551">
        <ele>886</ele>
        <time>2015-10-19T16:31:26Z</time>
      </trkpt>
      <trkpt lat="45.85328" lon="2.91527">
        <ele>886</ele>
        <time>2015-10-19T16:33:26Z</time>
      </trkpt>
      <trkpt lat="45.85301" lon="2.91473">
        <ele>885</ele>
        <time>2015-10-19T16:35:26Z</time>
      </trkpt>
      <trkpt lat="45.85283" lon="2.91452">
        <ele>884</ele>
        <time>2015-10-19T16:37:26Z</time>
      </trkpt>
      <trkpt lat="45.8527" lon="2.91421">
        <ele>884</ele>
        <time>2015-10-19T16:39:26Z</time>
      </trkpt>
      <trkpt lat="45.8526" lon="2.91398">
        <ele>883</ele>
        <time>2015-10-19T16:41:26Z</time>
      </trkpt>
      <trkpt lat="45.85248" lon="2.91351">
        <ele>881</ele>
        <time>2015-10-19T16:43:26Z</time>
      </trkpt>
      <trkpt lat="45.85242" lon="2.91322">
        <ele>880</ele>
        <time>2015-10-19T16:45:26Z</time>
      </trkpt>
      <trkpt lat="45.85204" lon="2.91353">
        <ele>880</ele>
        <time>2015-10-19T16:47:26Z</time>
      </trkpt>
      <trkpt lat="45.85166" lon="2.91401">
        <ele>881</ele>
        <time>2015-10-19T16:49:26Z</time>
      </trkpt>
      <trkpt lat="45.8513" lon="2.91441">
        <ele>881</ele>
        <time>2015-10-19T16:51:26Z</time>
      </trkpt>
      <trkpt lat="45.851" lon="2.9146">
        <ele>881</ele>
        <time>2015-10-19T16:53:26Z</time>
      </trkpt>
      <trkpt lat="45.8508" lon="2.91484">
        <ele>881</ele>
        <time>2015-10-19T16:55:26Z</time>
      </trkpt>
      <trkpt lat="45.85052" lon="2.91512">
        <ele>880</ele>
        <time>2015-10-19T16:57:26Z</time>
      </trkpt>
      <trkpt lat="45.85038" lon="2.91529">
        <ele>880</ele>
        <time>2015-10-19T16:59:26Z</time>
      </trkpt>
      <trkpt lat="45.85029" lon="2.91571">
        <ele>880</ele>
        <time>2015-10-19T17:01:26Z</time>
      </trkpt>
      <trkpt lat="45.85013" lon="2.9163">
        <ele>880</ele>
        <time>2015-10-19T17:03:26Z</time>
      </trkpt>
      <trkpt lat="45.84998" lon="2.91674">
        <ele>881</ele>
        <time>2015-10-19T17:05:26Z</time>
      </trkpt>
      <trkpt lat="45.84979" lon="2.91698">
        <ele>881</ele>
        <time>2015-10-19T17:07:26Z</time>
      </trkpt>
      <trkpt lat="45.84955" lon="2.91721">
        <ele>882</ele>
        <time>2015-10-19T17:09:26Z</time>
      </trkpt>
      <trkpt lat="45.84932" lon="2.9175">
        <ele>882</ele>
        <time>2015-10-19T17:11:26Z</time>
      </trkpt>
      <trkpt lat="45.84916" lon="2.91773">
        <ele>882</ele>
        <time>2015-10-19T17:13:26Z</time>
      </trkpt>
      <trkpt lat="45.84904" lon="2.9181">
        <ele>881</ele>
        <time>2015-10-19T17:15:26Z</time>
      </trkpt>
      <trkpt lat="45.8489" lon="2.91852">
        <ele>881</ele>
        <time>2015-10-19T17:17:26Z</time>
      </trkpt>
      <trkpt lat="45.84882" lon="2.91896">
        <ele>881</ele>
        <time>2015-10-19T17:19:26Z</time>
      </trkpt>
      <trkpt lat="45.84875" lon="2.91951">
        <ele>882</ele>
        <time>2015-10-19T17:21:26Z</time>
      </trkpt>
      <trkpt lat="45.84889" lon="2.91974">
        <ele>883</ele>
        <time>2015-10-19T17:23:26Z</time>
      </trkpt>
      <trkpt lat="45.8491" lon="2.9199">
        <ele>883</ele>
        <time>2015-10-19T17:25:26Z</time>
      </trkpt>
      <trkpt lat="45.84928" lon="2.92041">
        <ele>885</ele>
        <time>2015-10-19T17:27:26Z</time>
      </trkpt>
      <trkpt lat="45.8493" lon="2.92082">
        <ele>886</ele>
        <time>2015-10-19T17:29:26Z</time>
      </trkpt>
      <trkpt lat="45.84939" lon="2.92106">
        <ele>887</ele>
        <time>2015-10-19T17:31:26Z</time>
      </trkpt>
      <trkpt lat="45.84957" lon="2.92132">
        <ele>887</ele>
        <time>2015-10-19T17:33:26Z</time>
      </trkpt>
      <trkpt lat="45.84985" lon="2.92164">
        <ele>889</ele>
        <time>2015-10-19T17:35:26Z</time>
      </trkpt>
      <trkpt lat="45.85007" lon="2.92179">
        <ele>889</ele>
        <time>2015-10-19T17:37:26Z</time>
      </trkpt>
      <trkpt lat="45.85023" lon="2.92212">
        <ele>890</ele>
        <time>2015-10-19T17:39:26Z</time>
      </trkpt>
      <trkpt lat="45.85023" lon="2.92241">
        <ele>891</ele>
        <time>2015-10-19T17:41:26Z</time>
      </trkpt>
      <trkpt lat="45.85028" lon="2.92298">
        <ele>893</ele>
        <time>2015-10-19T17:43:26Z</time>
      </trkpt>
      <trkpt lat="45.85034" lon="2.92335">
        <ele>894</ele>
        <time>2015-10-19T17:45:26Z</time>
      </trkpt>
      <trkpt lat="45.85044" lon="2.92376">
        <ele>894</ele>
        <time>2015-10-19T17:47:26Z</time>
      </trkpt>
      <trkpt lat="45.85052" lon="2.92398">
        <ele>895</ele>
        <time>2015-10-19T17:49:26Z</time>
      </trkpt>
      <trkpt lat="45.85061" lon="2.92421">
        <ele>895</ele>
        <time>2015-10-19T17:51:26Z</time>
      </trkpt>
      <trkpt lat="45.8507" lon="2.92445">
        <ele>895</ele>
        <time>2015-10-19T17:53:26Z</time>
      </trkpt>
      <trkpt lat="45.8508" lon="2.92485">
        <ele>895</ele>
        <time>2015-10-19T17:55:26Z</time>
      </trkpt>
      <trkpt lat="45.85097" lon="2.92523">
        <ele>895</ele>
        <time>2015-10-19T17:57:26Z</time>
      </trkpt>
      <trkpt lat="45.85103" lon="2.9255">
        <ele>896</ele>
        <time>2015-10-19T17:59:26Z</time>
      </trkpt>
      <trkpt lat="45.85106" lon="2.92575">
        <ele>896</ele>
        <time>2015-10-19T18:01:26Z</time>
      </trkpt>
      <trkpt lat="45.85103" lon="2.92611">
        <ele>897</ele>
        <time>2015-10-19T18:03:26Z</time>
      </trkpt>
      <trkpt lat="45.85159" lon="2.92601">
        <ele>899</ele>
        <time>2015-10-19T18:05:26Z</time>
      </trkpt>
      <trkpt lat="45.85138" lon="2.92626">
        <ele>899</ele>
        <time>2015-10-19T18:07:26Z</time>
      </trkpt>
      <trkpt lat="45.85109" lon="2.92645">
        <ele>899</ele>
        <time>2015-10-19T18:09:26Z</time>
      </trkpt>
      <trkpt lat="45.85088" lon="2.92676">
        <ele>900</ele>
        <time>2015-10-19T18:11:26Z</time>
      </trkpt>
      <trkpt lat="45.85071" lon="2.92702">
        <ele>900</ele>
        <time>2015-10-19T18:13:26Z</time>
      </trkpt>
      <trkpt lat="45.85064" lon="2.92734">
        <ele>900</ele>
        <time>2015-10-19T18:15:26Z</time>
      </trkpt>
      <trkpt lat="45.85054" lon="2.92775">
        <ele>901</ele>
        <time>2015-10-19T18:17:26Z</time>
      </trkpt>
      <trkpt lat="45.8504" lon="2.92824">
        <ele>901</ele>
        <time>2015-10-19T18:19:26Z</time>
      </trkpt>
      <trkpt lat="45.85023" lon="2.92871">
        <ele>902</ele>
        <time>2015-10-19T18:21:26Z</time>
      </trkpt>
      <trkpt lat="45.85014" lon="2.92912">
        <ele>903</ele>
        <time>2015-10-19T18:23:26Z</time>
      </trkpt>
      <trkpt lat="45.85005" lon="2.9296">
        <ele>904</ele>
        <time>2015-10-19T18:25:26Z</time>
      </trkpt>
      <trkpt lat="45.84995" lon="2.93">
        <ele>905</ele>
        <time>2015-10-19T18:27:26Z</time>
      </trkpt>
      <trkpt lat="45.8497" lon="2.93047">
        <ele>908</ele>
        <time>2015-10-19T18:29:26Z</time>
      </trkpt>
      <trkpt lat="45.84952" lon="2.93099">
        <ele>911</ele>
        <time>2015-10-19T18:31:26Z</time>
      </trkpt>
      <trkpt lat="45.84908" lon="2.93217">
        <ele>915</ele>
        <time>2015-10-19T18:33:26Z</time>
      </trkpt>
      <trkpt lat="45.84877" lon="2.93303">
        <ele>917</ele>
        <time>2015-10-19T18:35:26Z</time>
      </trkpt>
      <trkpt lat="45.84868" lon="2.93341">
        <ele>919</ele>
        <time>2015-10-19T18:37:26Z</time>
      </trkpt>
      <trkpt lat="45.84863" lon="2.93392">
        <ele>921</ele>
        <time>2015-10-19T18:39:26Z</time>
      </trkpt>
      <trkpt lat="45.84849" lon="2.93432">
        <ele>924</ele>
        <time>2015-10-19T18:41:26Z</time>
      </trkpt>
      <trkpt lat="45.84828" lon="2.93486">
        <ele>928</ele>
        <time>2015-10-19T18:43:26Z</time>
      </trkpt>
      <trkpt lat="45.84809" lon="2.9352">
        <ele>931</ele>
        <time>2015-10-19T18:45:26Z</time>
      </trkpt>
      <trkpt lat="45.84792" lon="2.93563">
        <ele>933</ele>
        <time>2015-10-19T18:47:26Z</time>
      </trkpt>
      <trkpt lat="45.84776" lon="2.936">
        <ele>934</ele>
        <time>2015-10-19T18:49:26Z</time>
      </trkpt>
      <trkpt lat="45.84762" lon="2.93625">
        <ele>934</ele>
        <time>2015-10-19T18:51:26Z</time>
      </trkpt>
      <trkpt lat="45.84744" lon="2.93648">
        <ele>935</ele>
        <time>2015-10-19T18:53:26Z</time>
      </trkpt>
      <trkpt lat="45.84732" lon="2.93666">
        <ele>935</ele>
        <time>2015-10-19T18:55:26Z</time>
      </trkpt>
      <trkpt lat="45.84705" lon="2.93724">
        <ele>940</ele>
        <time>2015-10-19T18:57:26Z</time>
      </trkpt>
      <trkpt lat="45.84665" lon="2.93762">
        <ele>943</ele>
        <time>2015-10-19T18:59:26Z</time>
      </trkpt>
      <trkpt lat="45.84638" lon="2.93784">
        <ele>944</ele>
        <time>2015-10-19T19:01:26Z</time>
      </trkpt>
      <trkpt lat="45.84625" lon="2.93794">
        <ele>944</ele>
        <time>2015-10-19T19:03:26Z</time>
      </trkpt>
      <trkpt lat="45.84588" lon="2.93811">
        <ele>945</ele>
        <time>2015-10-19T19:05:26Z</time>
      </trkpt>
      <trkpt lat="45.84552" lon="2.9383">
        <ele>946</ele>
        <time>2015-10-19T19:07:26Z</time>
      </trkpt>
      <trkpt lat="45.84528" lon="2.93845">
        <ele>947</ele>
        <time>2015-10-19T19:09:26Z</time>
      </trkpt>
      <trkpt lat="45.845" lon="2.93863">
        <ele>947</ele>
        <time>2015-10-19T19:11:26Z</time>
      </trkpt>
      <trkpt lat="45.84442" lon="2.93899">
        <ele>947</ele>
        <time>2015-10-19T19:13:26Z</time>
      </trkpt>
      <trkpt lat="45.84411" lon="2.93917">
        <ele>947</ele>
        <time>2015-10-19T19:15:26Z</time>
      </trkpt>
      <trkpt lat="45.8438" lon="2.9393">
        <ele>947</ele>
        <time>2015-10-19T19:17:26Z</time>
      </trkpt>
      <trkpt lat="45.84355" lon="2.93956">
        <ele>947</ele>
        <time>2015-10-19T19:19:26Z</time>
      </trkpt>
      <trkpt lat="45.84326" lon="2.93975">
        <ele>946</ele>
        <time>2015-10-19T19:21:26Z</time>
      </trkpt>
      <trkpt lat="45.84292" lon="2.94004">
        <ele>946</ele>
        <time>2015-10-19T19:23:26Z</time>
      </trkpt>
      <trkpt lat="45.84271" lon="2.94019">
        <ele>946</ele>
        <time>2015-10-19T19:25:26Z</time>
      </trkpt>
      <trkpt lat="45.84278" lon="2.9411">
        <ele>946</ele>
        <time>2015-10-19T19:27:26Z</time>
      </trkpt>
      <trkpt lat="45.84282" lon="2.94197">
        <ele>946</ele>
        <time>2015-10-19T19:29:26Z</time>
      </trkpt>
      <trkpt lat="45.84287" lon="2.94287">
        <ele>947</ele>
        <time>2015-10-19T19:31:26Z</time>
      </trkpt>
      <trkpt lat="45.84292" lon="2.94377">
        <ele>950</ele>
        <time>2015-10-19T19:33:26Z</time>
      </trkpt>
      <trkpt lat="45.84296" lon="2.94476">
        <ele>953</ele>
        <time>2015-10-19T19:35:26Z</time>
      </trkpt>
      <trkpt lat="45.84299" lon="2.94549">
        <ele>954</ele>
        <time>2015-10-19T19:37:26Z</time>
      </trkpt>
      <trkpt lat="45.84297" lon="2.94638">
        <ele>957</ele>
        <time>2015-10-19T19:39:26Z</time>
      </trkpt>
      <trkpt lat="45.84296" lon="2.94761">
        <ele>960</ele>
        <time>2015-10-19T19:41:26Z</time>
      </trkpt>
      <trkpt lat="45.84282" lon="2.94851">
        <ele>965</ele>
        <time>2015-10-19T19:43:26Z</time>
      </trkpt>
      <trkpt lat="45.84269" lon="2.94944">
        <ele>973</ele>
        <time>2015-10-19T19:45:26Z</time>
      </trkpt>
      <trkpt lat="45.84277" lon="2.95014">
        <ele>979</ele>
        <time>2015-10-19T19:47:26Z</time>
      </trkpt>
      <trkpt lat="45.8428" lon="2.95067">
        <ele>983</ele>
        <time>2015-10-19T19:49:26Z</time>
      </trkpt>
      <trkpt lat="45.84277" lon="2.95106">
        <ele>986</ele>
        <time>2015-10-19T19:51:26Z</time>
      </trkpt>
      <trkpt lat="45.84272" lon="2.9514">
        <ele>988</ele>
        <time>2015-10-19T19:53:26Z</time>
      </trkpt>
      <trkpt lat="45.84274" lon="2.95202">
        <ele>992</ele>
        <time>2015-10-19T19:55:26Z</time>
      </trkpt>
      <trkpt lat="45.84278" lon="2.95246">
        <ele>994</ele>
        <time>2015-10-19T19:57:26Z</time>
      </trkpt>
      <trkpt lat="45.84269" lon="2.95301">
        <ele>995</ele>
        <time>2015-10-19T19:59:26Z</time>
      </trkpt>
      <trkpt lat="45.84255" lon="2.95352">
        <ele>996</ele>
        <time>2015-10-19T20:01:26Z</time>
      </trkpt>
      <trkpt lat="45.84235" lon="2.95403">
        <ele>997</ele>
        <time>2015-10-19T20:03:26Z</time>
      </trkpt>
      <trkpt lat="45.84218" lon="2.95439">
        <ele>997</ele>
        <time>2015-10-19T20:05:26Z</time>
      </trkpt>
      <trkpt lat="45.84199" lon="2.95469">
        <ele>997</ele>
        <time>2015-10-19T20:07:26Z</time>
      </trkpt>
      <trkpt lat="45.84168" lon="2.95518">
        <ele>997</ele>
        <time>2015-10-19T20:09:26Z</time>
      </trkpt>
      <trkpt lat="45.84153" lon="2.95544">
        <ele>997</ele>
        <time>2015-10-19T20:11:26Z</time>
      </trkpt>
      <trkpt lat="45.8411" lon="2.95591">
        <ele>998</ele>
        <time>2015-10-19T20:13:26Z</time>
      </trkpt>
      <trkpt lat="45.8408" lon="2.95632">
        <ele>999</ele>
        <time>2015-10-19T20:15:26Z</time>
      </trkpt>
      <trkpt lat="45.84056" lon="2.9565">
        <ele>999</ele>
        <time>2015-10-19T20:17:26Z</time>
      </trkpt>
      <trkpt lat="45.84029" lon="2.9568">
        <ele>1000</ele>
        <time>2015-10-19T20:19:26Z</time>
      </trkpt>
      <trkpt lat="45.8402" lon="2.95693">
        <ele>1001</ele>
        <time>2015-10-19T20:21:26Z</time>
      </trkpt>
      <trkpt lat="45.84002" lon="2.95721">
        <ele>1002</ele>
        <time>2015-10-19T20:23:26Z</time>
      </trkpt>
      <trkpt lat="45.83984" lon="2.95742">
        <ele>1004</ele>
        <time>2015-10-19T20:25:26Z</time>
      </trkpt>
      <trkpt lat="45.83952" lon="2.9578">
        <ele>1008</ele>
        <time>2015-10-19T20:27:26Z</time>
      </trkpt>
      <trkpt lat="45.83892" lon="2.95802">
        <ele>1010</ele>
        <time>2015-10-19T20:29:26Z</time>
      </trkpt>
      <trkpt lat="45.83854" lon="2.95828">
        <ele>1013</ele>
        <time>2015-10-19T20:31:26Z</time>
      </trkpt>
      <trkpt lat="45.83814" lon="2.95851">
        <ele>1017</ele>
        <time>2015-10-19T20:33:26Z</time>
      </trkpt>
      <trkpt lat="45.83749" lon="2.95884">
        <ele>1023</ele>
        <time>2015-10-19T20:35:26Z</time>
      </trkpt>
      <trkpt lat="45.83731" lon="2.95887">
        <ele>1024</ele>
        <time>2015-10-19T20:37:26Z</time>
      </trkpt>
      <trkpt lat="45.83702" lon="2.95902">
        <ele>1027</ele>
        <time>2015-10-19T20:39:26Z</time>
      </trkpt>
      <trkpt lat="45.83689" lon="2.9592">
        <ele>1028</ele>
        <time>2015-10-19T20:41:26Z</time>
      </trkpt>
      <trkpt lat="45.83671" lon="2.95933">
        <ele>1029</ele>
        <time>2015-10-19T20:43:26Z</time>
      </trkpt>
      <trkpt lat="45.83647" lon="2.9593">
        <ele>1030</ele>
        <time>2015-10-19T20:45:26Z</time>
      </trkpt>
      <trkpt lat="45.83668" lon="2.95894">
        <ele>1028</ele>
        <time>2015-10-19T20:47:26Z</time>
      </trkpt>
      <trkpt lat="45.83695" lon="2.95865">
        <ele>1025</ele>
        <time>2015-10-19T20:49:26Z</time>
      </trkpt>
      <trkpt lat="45.83724" lon="2.95844">
        <ele>1022</ele>
        <time>2015-10-19T20:51:26Z</time>
      </trkpt>
      <trkpt lat="45.83739" lon="2.9582">
        <ele>1020</ele>
        <time>2015-10-19T20:53:26Z</time>
      </trkpt>
      <trkpt lat="45.8377" lon="2.95774">
        <ele>1017</ele>
        <time>2015-10-19T20:55:26Z</time>
      </trkpt>
      <trkpt lat="45.83795" lon="2.95736">
        <ele>1014</ele>
        <time>2015-10-19T20:57:26Z</time>
      </trkpt>
      <trkpt lat="45.83818" lon="2.95703">
        <ele>1012</ele>
        <time>2015-10-19T20:59:26Z</time>
      </trkpt>
      <trkpt lat="45.83839" lon="2.95692">
        <ele>1009</ele>
        <time>2015-10-19T21:01:26Z</time>
      </trkpt>
      <trkpt lat="45.83855" lon="2.95671">
        <ele>1007</ele>
        <time>2015-10-19T21:03:26Z</time>
      </trkpt>
      <trkpt lat="45.83869" lon="2.95661">
        <ele>1005</ele>
        <time>2015-10-19T21:05:26Z</time>
      </trkpt>
      <trkpt lat="45.8388" lon="2.95658">
        <ele>1004</ele>
        <time>2015-10-19T21:07:26Z</time>
      </trkpt>
      <trkpt lat="45.83902" lon="2.95596">
        <ele>1001</ele>
        <time>2015-10-19T21:09:26Z</time>
      </trkpt>
      <trkpt lat="45.83911" lon="2.95545">
        <ele>998</ele>
        <time>2015-10-19T21:11:26Z</time>
      </trkpt>
      <trkpt lat="45.83914" lon="2.9548">
        <ele>994</ele>
        <time>2015-10-19T21:13:26Z</time>
      </trkpt>
      <trkpt lat="45.83912" lon="2.95441">
        <ele>992</ele>
        <time>2015-10-19T21:15:26Z</time>
      </trkpt>
      <trkpt lat="45.83892" lon="2.9539">
        <ele>992</ele>
        <time>2015-10-19T21:17:26Z</time>
      </trkpt>
      <trkpt lat="45.83881" lon="2.95362">
        <ele>991</ele>
        <time>2015-10-19T21:19:26Z</time>
      </trkpt>
      <trkpt lat="45.83871" lon="2.9534">
        <ele>990</ele>
        <time>2015-10-19T21:21:26Z</time>
      </trkpt>
      <trkpt lat="45.83851" lon="2.95305">
        <ele>988</ele>
        <time>2015-10-19T21:23:26Z</time>
      </trkpt>
      <trkpt lat="45.83831" lon="2.95276">
        <ele>986</ele>
        <time>2015-10-19T21:25:26Z</time>
      </trkpt>
      <trkpt lat="45.83825" lon="2.95261">
        <ele>985</ele>
        <time>2015-10-19T21:27:26Z</time>
      </trkpt>
      <trkpt lat="45.83825" lon="2.95204">
        <ele>983</ele>
        <time>2015-10-19T21:29:26Z</time>
      </trkpt>
      <trkpt lat="45.83819" lon="2.95124">
        <ele>979</ele>
        <time>2015-10-19T21:31:26Z</time>
      </trkpt>
      <trkpt lat="45.83801" lon="2.95084">
        <ele>977</ele>
        <time>2015-10-19T21:33:26Z</time>
      </trkpt>
      <trkpt lat="45.83769" lon="2.95037">
        <ele>974</ele>
        <time>2015-10-19T21:35:26Z</time>
      </trkpt>
      <trkpt lat="45.83746" lon="2.94979">
        <ele>969</ele>
        <time>2015-10-19T21:37:26Z</time>
      </trkpt>
      <trkpt lat="45.83747" lon="2.94908">
        <ele>968</ele>
        <time>2015-10-19T21:39:26Z</time>
      </trkpt>
      <trkpt lat="45.83751" lon="2.94834">
        <ele>967</ele>
        <time>2015-10-19T21:41:26Z</time>
      </trkpt>
      <trkpt lat="45.83748" lon="2.94776">
        <ele>965</ele>
        <time>2015-10-19T21:43:26Z</time>
      </trkpt>
      <trkpt lat="45.83749" lon="2.94718">
        <ele>963</ele>
        <time>2015-10-19T21:45:26Z</time>
      </trkpt>
      <trkpt lat="45.83742" lon="2.94675">
        <ele>961</ele>
        <time>2015-10-19T21:47:26Z</time>
      </trkpt>
      <trkpt lat="45.83733" lon="2.94639">
        <ele>959</ele>
        <time>2015-10-19T21:49:26Z</time>
      </trkpt>
      <trkpt lat="45.83713" lon="2.94589">
        <ele>956</ele>
        <time>2015-10-19T21:51:26Z</time>
      </trkpt>
      <trkpt lat="45.83686" lon="2.94516">
        <ele>958</ele>
        <time>2015-10-19T21:53:26Z</time>
      </trkpt>
      <trkpt lat="45.83635" lon="2.94544">
        <ele>957</ele>
        <time>2015-10-19T21:55:26Z</time>
      </trkpt>
      <trkpt lat="45.83584" lon="2.94565">
        <ele>957</ele>
        <time>2015-10-19T21:57:26Z</time>
      </trkpt>
      <trkpt lat="45.83536" lon="2.94579">
        <ele>957</ele>
        <time>2015-10-19T21:59:26Z</time>
      </trkpt>
      <trkpt lat="45.83509" lon="2.94583">
        <ele>957</ele>
        <time>2015-10-19T22:01:26Z</time>
      </trkpt>
      <trkpt lat="45.83482" lon="2.94519">
        <ele>955</ele>
        <time>2015-10-19T22:03:26Z</time>
      </trkpt>
      <trkpt lat="45.83446" lon="2.94482">
        <ele>954</ele>
        <time>2015-10-19T22:05:26Z</time>
      </trkpt>
      <trkpt lat="45.8341" lon="2.94429">
        <ele>953</ele>
        <time>2015-10-19T22:07:26Z</time>
      </trkpt>
      <trkpt lat="45.83388" lon="2.94396">
        <ele>952</ele>
        <time>2015-10-19T22:09:26Z</time>
      </trkpt>
      <trkpt lat="45.83363" lon="2.9436">
        <ele>952</ele>
        <time>2015-10-19T22:11:26Z</time>
      </trkpt>
      <trkpt lat="45.83346" lon="2.94332">
        <ele>951</ele>
        <time>2015-10-19T22:13:26Z</time>
      </trkpt>
      <trkpt lat="45.83321" lon="2.94278">
        <ele>951</ele>
        <time>2015-10-19T22:15:26Z</time>
      </trkpt>
      <trkpt lat="45.83294" lon="2.94197">
        <ele>950</ele>
        <time>2015-10-19T22:17:26Z</time>
      </trkpt>
      <trkpt lat="45.83249" lon="2.94051">
        <ele>950</ele>
        <time>2015-10-19T22:19:26Z</time>
      </trkpt>
      <trkpt lat="45.83239" lon="2.94019">
        <ele>951</ele>
        <time>2015-10-19T22:21:26Z</time>
      </trkpt>
      <trkpt lat="45.83342" lon="2.9392">
        <ele>946</ele>
        <time>2015-10-19T22:23:26Z</time>
      </trkpt>
      <trkpt lat="45.83369" lon="2.93915">
        <ele>944</ele>
        <time>2015-10-19T22:25:26Z</time>
      </trkpt>
      <trkpt lat="45.83388" lon="2.93924">
        <ele>943</ele>
        <time>2015-10-19T22:27:26Z</time>
      </trkpt>
      <trkpt lat="45.83428" lon="2.93912">
        <ele>940</ele>
        <time>2015-10-19T22:29:26Z</time>
      </trkpt>
      <trkpt lat="45.83467" lon="2.93867">
        <ele>937</ele>
        <time>2015-10-19T22:31:26Z</time>
      </trkpt>
      <trkpt lat="45.83494" lon="2.93803">
        <ele>935</ele>
        <time>2015-10-19T22:33:26Z</time>
      </trkpt>
      <trkpt lat="45.83527" lon="2.93732">
        <ele>934</ele>
        <time>2015-10-19T22:35:26Z</time>
      </trkpt>
      <trkpt lat="45.83553" lon="2.93676">
        <ele>932</ele>
        <time>2015-10-19T22:37:26Z</time>
      </trkpt>
      <trkpt lat="45.8357" lon="2.93618">
        <ele>930</ele>
        <time>2015-10-19T22:39:26Z</time>
      </trkpt>
      <trkpt lat="45.83586" lon="2.93575">
        <ele>929</ele>
        <time>2015-10-19T22:41:26Z</time>
      </trkpt>
      <trkpt lat="45.83615" lon="2.93504">
        <ele>925</ele>
        <time>2015-10-19T22:43:26Z</time>
      </trkpt>
      <trkpt lat="45.83637" lon="2.93478">
        <ele>924</ele>
        <time>2015-10-19T22:45:26Z</time>
      </trkpt>
      <trkpt lat="45.83659" lon="2.93452">
        <ele>923</ele>
        <time>2015-10-19T22:47:26Z</time>
      </trkpt>
      <trkpt lat="45.83678" lon="2.93436">
        <ele>921</ele>
        <time>2015-10-19T22:49:26Z</time>
      </trkpt>
      <trkpt lat="45.837" lon="2.93411">
        <ele>918</ele>
        <time>2015-10-19T22:51:26Z</time>
      </trkpt>
      <trkpt lat="45.83709" lon="2.93385">
        <ele>915</ele>
        <time>2015-10-19T22:53:26Z</time>
      </trkpt>
      <trkpt lat="45.83712" lon="2.93377">
        <ele>915</ele>
        <time>2015-10-19T22:55:26Z</time>
      </trkpt>
      <trkpt lat="45.83727" lon="2.93351">
        <ele>912</ele>
        <time>2015-10-19T22:57:26Z</time>
      </trkpt>
      <trkpt lat="45.83742" lon="2.93335">
        <ele>910</ele>
        <time>2015-10-19T22:59:26Z</time>
      </trkpt>
      <trkpt lat="45.83754" lon="2.9331">
        <ele>910</ele>
        <time>2015-10-19T23:01:26Z</time>
      </trkpt>
      <trkpt lat="45.8378" lon="2.93223">
        <ele>909</ele>
        <time>2015-10-19T23:03:26Z</time>
      </trkpt>
      <trkpt lat="45.83783" lon="2.93196">
        <ele>909</ele>
        <time>2015-10-19T23:05:26Z</time>
      </trkpt>
      <trkpt lat="45.83802" lon="2.93127">
        <ele>908</ele>
        <time>2015-10-19T23:07:26Z</time>
      </trkpt>
      <trkpt lat="45.83811" lon="2.93109">
        <ele>908</ele>
        <time>2015-10-19T23:09:26Z</time>
      </trkpt>
      <trkpt lat="45.83833" lon="2.93086">
        <ele>909</ele>
        <time>2015-10-19T23:11:26Z</time>
      </trkpt>
      <trkpt lat="45.8386" lon="2.93069">
        <ele>908</ele>
        <time>2015-10-19T23:13:26Z</time>
      </trkpt>
      <trkpt lat="45.83883" lon="2.93058">
        <ele>906</ele>
        <time>2015-10-19T23:15:26Z</time>
      </trkpt>
      <trkpt lat="45.83909" lon="2.93046">
        <ele>904</ele>
        <time>2015-10-19T23:17:26Z</time>
      </trkpt>
      <trkpt lat="45.83932" lon="2.93038">
        <ele>903</ele>
        <time>2015-10-19T23:19:26Z</time>
      </trkpt>
      <trkpt lat="45.83965" lon="2.93024">
        <ele>902</ele>
        <time>2015-10-19T23:21:26Z</time>
      </trkpt>
      <trkpt lat="45.84004" lon="2.93014">
        <ele>901</ele>
        <time>2015-10-19T23:23:26Z</time>
      </trkpt>
      <trkpt lat="45.84042" lon="2.93004">
        <ele>899</ele>
        <time>2015-10-19T23:25:26Z</time>
      </trkpt>
      <trkpt lat="45.84072" lon="2.92991">
        <ele>897</ele>
        <time>2015-10-19T23:27:26Z</time>
      </trkpt>
      <trkpt lat="45.84091" lon="2.92981">
        <ele>896</ele>
        <time>2015-10-19T23:29:26Z</time>
      </trkpt>
      <trkpt lat="45.84118" lon="2.92972">
        <ele>895</ele>
        <time>2015-10-19T23:31:26Z</time>
      </trkpt>
      <trkpt lat="45.84132" lon="2.92969">
        <ele>895</ele>
        <time>2015-10-19T23:33:26Z</time>
      </trkpt>
      <trkpt lat="45.84122" lon="2.92933">
        <ele>892</ele>
        <time>2015-10-19T23:35:26Z</time>
      </trkpt>
      <trkpt lat="45.84108" lon="2.9288">
        <ele>888</ele>
        <time>2015-10-19T23:37:26Z</time>
      </trkpt>
      <trkpt lat="45.84089" lon="2.9287">
        <ele>888</ele>
        <time>2015-10-19T23:39:26Z</time>
      </trkpt>
      <trkpt lat="45.84092" lon="2.92852">
        <ele>886</ele>
        <time>2015-10-19T23:41:26Z</time>
      </trkpt>
    </trkseg>
  </trk>
</gpx>